Data for 07/06/2012

Time Sea-Level Adjusted Pressure Absolute Pressure Temperature Relative Humidity Dew Point Precipitation   
(mb) (inHg) (mb) (inHg) (C) (F) (%) (C) (F) (mm) (in)
00:01 1023 30.21 852 25.16 12.7 54.9 70 7.5 45.5 0 0
00:02 1023 30.21 852 25.16 12.8 55 70 7.5 45.6 0 0
00:03 1023 30.21 852 25.16 12.8 55 70 7.5 45.6 0 0
00:04 1023 30.21 852 25.16 12.6 54.6 71 7.6 45.6 0 0
00:05 1023 30.21 852 25.16 12.1 53.7 73 7.5 45.5 0 0
00:06 1023 30.21 852 25.16 11.6 52.8 76 7.4 45.4 0 0
00:07 1023 30.21 852 25.16 11.2 52.1 77 7.3 45.2 0 0
00:08 1023 30.21 852 25.16 10.9 51.6 78 7.3 45.1 0 0
00:09 1023 30.21 852 25.16 10.7 51.2 79 7.2 45 0 0
00:10 1023 30.21 852 25.16 10.4 50.7 80 7.2 44.9 0 0
00:11 1023 30.21 852 25.16 10.2 50.4 81 7.2 44.9 0 0
00:12 1023 30.21 852 25.16 10.1 50.2 82 7.2 45 0 0
00:13 1023 30.21 852 25.16 10 50 82 7.2 44.9 0 0
00:14 1023 30.21 852 25.16 10 49.9 83 7.2 44.9 0 0
00:15 1023 30.21 852 25.16 9.9 49.8 83 7.1 44.8 0 0
00:16 1023 30.21 852 25.16 9.9 49.7 83 7.1 44.8 0 0
00:17 1023 30.21 852 25.16 9.8 49.7 83 7.1 44.7 0 0
00:18 1023 30.21 852 25.16 9.8 49.6 83 7.1 44.7 0 0
00:19 1023 30.21 852 25.16 9.8 49.6 83 7.1 44.7 0 0
00:20 1023 30.21 852 25.16 9.7 49.5 83 7 44.7 0 0
00:21 1023 30.21 852 25.16 9.7 49.4 83 7 44.5 0 0
00:22 1023 30.21 852 25.16 9.6 49.2 84 7 44.6 0 0
00:23 1023 30.21 852 25.16 9.5 49 84 6.9 44.5 0 0
00:24 1023 30.21 852 25.16 9.5 49 84 7 44.5 0 0
00:25 1023 30.21 852 25.16 9.5 49.1 84 7 44.5 0 0
00:26 1023 30.21 852 25.16 9.6 49.3 84 7 44.5 0 0
00:27 1023 30.21 852 25.16 9.6 49.3 83 6.9 44.4 0 0
00:28 1023 30.21 852 25.16 9.6 49.2 83 6.8 44.3 0 0
00:29 1023 30.21 852 25.16 9.5 49.2 84 6.9 44.4 0 0
00:30 1023 30.21 852 25.16 9.6 49.2 83 6.9 44.4 0 0
00:31 1023 30.21 852 25.16 9.6 49.3 83 6.8 44.3 0 0
00:32 1023 30.21 852 25.16 9.5 49.2 83 6.8 44.3 0 0
00:33 1023 30.21 852 25.16 9.5 49 83 6.7 44.1 0 0
00:34 1023 30.21 852 25.16 9.3 48.8 84 6.7 44.1 0 0
00:35 1023 30.21 852 25.16 9.3 48.7 84 6.6 44 0 0
00:36 1023 30.21 852 25.16 9.2 48.6 84 6.7 44.1 0 0
00:37 1023 30.21 852 25.16 9.2 48.6 84 6.7 44 0 0
00:38 1023 30.21 852 25.16 9.3 48.7 84 6.7 44 0 0
00:39 1023 30.21 852 25.16 9.4 48.9 83 6.7 44.1 0 0
00:40 1023 30.21 852 25.16 9.6 49.2 83 6.8 44.3 0 0
00:41 1023 30.21 852 25.16 9.7 49.5 81 6.6 43.9 0 0
00:42 1023 30.21 852 25.16 9.7 49.5 80 6.5 43.7 0 0
00:43 1023 30.21 852 25.16 9.5 49.1 81 6.5 43.6 0 0
00:44 1023 30.21 852 25.16 9.2 48.6 82 6.3 43.4 0 0
00:45 1023 30.21 852 25.16 8.9 48.1 85 6.5 43.8 0 0
00:46 1023 30.21 852 25.16 8.9 48 85 6.6 43.8 0 0
00:47 1023 30.21 852 25.16 8.9 48 86 6.6 43.9 0 0
00:48 1023 30.21 852 25.16 8.9 48 86 6.7 44 0 0
00:49 1023 30.21 852 25.16 8.9 48.1 86 6.7 44 0 0
00:50 1023 30.21 852 25.16 9.1 48.4 85 6.8 44.2 0 0
00:51 1023 30.21 852 25.16 9.3 48.7 85 6.8 44.3 0 0
00:52 1023 30.21 852 25.16 9.4 48.9 84 6.9 44.4 0 0
00:53 1023 30.21 852 25.16 9.5 49 85 7 44.6 0 0
00:54 1023 30.21 852 25.16 9.5 49.1 84 7 44.5 0 0
00:55 1023 30.21 852 25.16 9.5 49.2 84 7 44.6 0 0
00:56 1023 30.21 852 25.16 9.5 49.2 84 6.9 44.5 0 0
00:57 1023 30.21 852 25.16 9.6 49.2 84 6.9 44.4 0 0
00:58 1023 30.21 852 25.16 9.6 49.3 83 6.9 44.4 0 0
00:59 1023 30.21 852 25.16 9.6 49.4 83 6.8 44.3 0 0
01:00 1023 30.21 852 25.16 9.5 49.1 83 6.8 44.3 0 0
01:01 1023 30.21 852 25.16 9.4 48.8 84 6.8 44.2 0 0
01:02 1023 30.21 852 25.16 9.2 48.6 84 6.7 44 0 0
01:03 1023 30.21 852 25.16 9.1 48.3 85 6.7 44 0 0
01:04 1023 30.21 852 25.16 9 48.2 86 6.7 44.1 0 0
01:05 1023 30.21 852 25.16 9.1 48.3 85 6.8 44.2 0 0
01:06 1023 30.21 852 25.16 9.1 48.4 85 6.7 44 0 0
01:07 1023 30.21 852 25.16 9.2 48.6 84 6.7 44.1 0 0
01:08 1023 30.21 852 25.16 9.3 48.7 84 6.7 44.1 0 0
01:09 1023 30.21 852 25.16 9.4 48.9 84 6.8 44.2 0 0
01:10 1023 30.21 852 25.16 9.4 48.9 83 6.7 44 0 0
01:11 1023 30.21 852 25.16 9.5 49.1 83 6.8 44.3 0 0
01:12 1023 30.21 852 25.16 9.6 49.3 83 6.8 44.3 0 0
01:13 1023 30.21 852 25.16 9.7 49.5 82 6.9 44.4 0 0
01:14 1023 30.21 852 25.16 9.8 49.7 82 6.9 44.4 0 0
01:15 1023 30.21 852 25.16 9.8 49.7 82 6.8 44.3 0 0
01:16 1023 30.21 852 25.16 9.8 49.7 82 6.9 44.4 0 0
01:17 1023 30.21 852 25.16 9.8 49.6 81 6.8 44.2 0 0
01:18 1023 30.21 852 25.16 9.8 49.7 82 6.9 44.5 0 0
01:19 1023 30.21 852 25.16 9.9 49.8 82 6.9 44.4 0 0
01:20 1023 30.21 852 25.16 10 50 81 6.9 44.4 0 0
01:21 1023 30.21 852 25.16 10 50.1 80 6.8 44.3 0 0
01:22 1023 30.21 852 25.16 10 49.9 81 6.8 44.3 0 0
01:23 1023 30.21 852 25.16 9.9 49.9 81 6.9 44.3 0 0
01:24 1023 30.21 852 25.16 9.9 49.9 81 6.9 44.4 0 0
01:25 1023 30.21 852 25.16 10 50 81 6.9 44.4 0 0
01:26 1023 30.21 852 25.16 10 50.1 81 6.9 44.4 0 0
01:27 1023 30.21 852 25.16 10 50 81 6.9 44.4 0 0
01:28 1023 30.21 852 25.16 9.9 49.8 81 6.9 44.4 0 0
01:29 1023 30.21 852 25.16 9.8 49.7 82 6.9 44.5 0 0
01:30 1023 30.21 852 25.16 9.8 49.6 82 6.9 44.4 0 0
01:31 1023 30.21 852 25.16 9.7 49.5 82 6.8 44.3 0 0
01:32 1023 30.21 852 25.16 9.9 49.8 81 6.8 44.2 0 0
01:33 1023 30.21 852 25.16 10 50.1 80 6.8 44.3 0 0
01:34 1023 30.21 852 25.16 10.2 50.4 80 6.9 44.4 0 0
01:35 1023 30.21 852 25.16 10.5 50.9 78 6.9 44.4 0 0
01:36 1023 30.21 852 25.16 10.8 51.5 77 6.9 44.4 0 0
01:37 1023 30.21 852 25.16 11 51.9 76 6.9 44.4 0 0
01:38 1023 30.21 852 25.16 11.1 52 75 6.9 44.4 0 0
01:39 1023 30.21 852 25.16 11.2 52.2 75 6.9 44.4 0 0
01:40 1023 30.21 852 25.16 11.3 52.3 75 6.9 44.5 0 0
01:41 1023 30.21 852 25.16 11.2 52.1 75 6.8 44.3 0 0
01:42 1023 30.21 852 25.16 11 51.8 75 6.8 44.3 0 0
01:43 1023 30.21 852 25.16 10.8 51.5 76 6.8 44.2 0 0
01:44 1023 30.21 852 25.16 10.6 51.1 77 6.7 44.1 0 0
01:45 1023 30.21 852 25.16 10.4 50.7 78 6.7 44 0 0
01:46 1023 30.21 852 25.16 10.3 50.5 78 6.7 44.1 0 0
01:47 1023 30.21 852 25.16 10.1 50.2 79 6.6 43.9 0 0
01:48 1023 30.21 852 25.16 10 49.9 80 6.7 44 0 0
01:49 1023 30.21 852 25.16 9.9 49.8 80 6.6 43.9 0 0
01:50 1023 30.21 852 25.16 9.8 49.7 80 6.6 43.9 0 0
01:51 1023 30.21 852 25.16 9.8 49.6 80 6.6 43.9 0 0
01:52 1023 30.21 852 25.16 9.8 49.6 80 6.5 43.8 0 0
01:53 1023 30.21 852 25.16 9.9 49.8 80 6.5 43.8 0 0
01:54 1023 30.21 852 25.16 9.9 49.9 79 6.5 43.7 0 0
01:55 1023 30.21 852 25.16 9.8 49.7 80 6.5 43.8 0 0
01:56 1023 30.21 852 25.16 9.7 49.5 80 6.5 43.7 0 0
01:57 1023 30.21 852 25.16 9.7 49.4 80 6.5 43.6 0 0
01:58 1023 30.21 852 25.16 9.6 49.3 81 6.5 43.7 0 0
01:59 1023 30.21 852 25.16 9.5 49.1 81 6.4 43.6 0 0
02:00 1023 30.21 852 25.16 9.5 49 82 6.5 43.8 0 0
02:01 1023 30.21 852 25.16 9.5 49.1 82 6.5 43.7 0 0
02:02 1023 30.21 852 25.16 9.5 49.1 82 6.5 43.8 0 0
02:03 1023 30.21 852 25.16 9.4 49 82 6.6 43.9 0 0
02:04 1023 30.21 852 25.16 9.5 49 82 6.6 43.9 0 0
02:05 1023 30.21 852 25.16 9.5 49.1 82 6.6 43.9 0 0
02:06 1023 30.21 852 25.16 9.7 49.4 82 6.7 44 0 0
02:07 1023 30.21 852 25.16 9.8 49.6 79 6.4 43.5 0 0
02:08 1023 30.21 852 25.16 9.8 49.6 81 6.6 43.9 0 0
02:09 1023 30.21 852 25.16 10 49.9 80 6.6 43.9 0 0
02:10 1023 30.21 852 25.16 10.2 50.4 79 6.8 44.2 0 0
02:11 1023 30.21 852 25.16 10.4 50.8 78 6.7 44.1 0 0
02:12 1023 30.21 852 25.16 10.6 51.2 77 6.8 44.3 0 0
02:13 1023 30.21 852 25.16 10.6 51.1 77 6.8 44.3 0 0
02:14 1023 30.21 852 25.16 10.6 51.1 77 6.8 44.2 0 0
02:15 1023 30.21 852 25.16 10.8 51.5 76 6.8 44.3 0 0
02:16 1023 30.21 852 25.16 11 51.8 76 6.9 44.4 0 0
02:17 1023 30.21 852 25.16 11.1 52 75 6.9 44.5 0 0
02:18 1023 30.21 852 25.16 11 51.9 75 6.9 44.4 0 0
02:19 1023 30.21 852 25.16 10.9 51.6 76 6.8 44.3 0 0
02:20 1023 30.21 852 25.16 10.8 51.5 76 6.8 44.2 0 0
02:21 1023 30.21 852 25.16 10.9 51.5 76 6.8 44.3 0 0
02:22 1023 30.21 852 25.16 10.9 51.5 76 6.9 44.4 0 0
02:23 1023 30.21 852 25.16 11 51.8 76 6.9 44.4 0 0
02:24 1023 30.21 852 25.16 11.2 52.1 75 7 44.5 0 0
02:25 1023 30.21 852 25.16 11.3 52.3 75 7 44.6 0 0
02:26 1023 30.21 852 25.16 11.3 52.4 75 7 44.6 0 0
02:27 1023 30.21 852 25.16 11.3 52.3 75 7 44.7 0 0
02:28 1023 30.21 852 25.16 11.2 52.1 75 7 44.6 0 0
02:29 1023 30.21 853 25.19 11.1 51.9 75 6.9 44.4 0 0
02:30 1023 30.21 853 25.19 10.9 51.7 76 6.8 44.2 0 0
02:31 1023 30.21 853 25.19 10.7 51.2 76 6.7 44 0 0
02:32 1023 30.21 853 25.19 10.4 50.6 77 6.6 43.9 0 0
02:33 1023 30.21 853 25.19 10.1 50.2 78 6.5 43.6 0 0
02:34 1023 30.21 853 25.19 9.8 49.6 79 6.4 43.4 0 0
02:35 1023 30.21 853 25.19 9.5 49 81 6.3 43.3 0 0
02:36 1023 30.21 853 25.19 9.3 48.7 81 6.3 43.3 0 0
02:37 1023 30.21 853 25.19 9.1 48.4 82 6.2 43.1 0 0
02:38 1023 30.21 853 25.19 9 48.2 83 6.2 43.1 0 0
02:39 1023 30.21 853 25.19 8.9 48 83 6.2 43.1 0 0
02:40 1023 30.21 853 25.19 8.8 47.9 84 6.2 43.2 0 0
02:41 1023 30.21 853 25.19 8.8 47.8 83 6.1 43 0 0
02:42 1023 30.21 853 25.19 8.7 47.7 84 6.2 43.1 0 0
02:43 1023 30.21 853 25.19 8.7 47.6 85 6.3 43.3 0 0
02:44 1023 30.21 853 25.19 8.7 47.7 85 6.4 43.5 0 0
02:45 1023 30.21 853 25.19 9.1 48.4 85 6.7 44 0 0
02:46 1023 30.21 853 25.19 9.6 49.3 83 6.8 44.2 0 0
02:47 1024 30.24 853 25.19 10 50 81 6.9 44.4 0 0
02:48 1024 30.24 853 25.19 10.4 50.7 79 7 44.6 0 0
02:49 1024 30.24 853 25.19 10.6 51 78 7 44.6 0 0
02:50 1024 30.24 853 25.19 10.7 51.2 78 7.1 44.7 0 0
02:51 1024 30.24 853 25.19 10.7 51.3 78 7.1 44.7 0 0
02:52 1024 30.24 853 25.19 10.7 51.3 78 7 44.7 0 0
02:53 1024 30.24 853 25.19 10.7 51.3 78 7 44.6 0 0
02:54 1024 30.24 853 25.19 10.5 50.9 78 6.8 44.3 0 0
02:55 1024 30.24 853 25.19 10.3 50.5 78 6.6 43.9 0 0
02:56 1024 30.24 853 25.19 10 49.9 79 6.6 43.8 0 0
02:57 1024 30.24 853 25.19 9.6 49.3 80 6.3 43.3 0 0
02:58 1024 30.24 853 25.19 9.3 48.8 80 6.1 42.9 0 0
02:59 1024 30.24 853 25.19 9.1 48.4 81 6.1 43 0 0
03:00 1024 30.24 853 25.19 8.9 48 83 6.2 43.1 0 0
03:01 1024 30.24 853 25.19 8.8 47.8 83 6 42.9 0 0
03:02 1024 30.24 853 25.19 8.7 47.6 83 5.9 42.6 0 0
03:03 1024 30.24 853 25.19 8.6 47.4 83 5.8 42.5 0 0
03:04 1024 30.24 853 25.19 8.5 47.3 83 5.8 42.4 0 0
03:05 1024 30.24 853 25.19 8.4 47.2 83 5.7 42.2 0 0
03:06 1024 30.24 853 25.19 8.4 47 83 5.7 42.2 0 0
03:07 1024 30.24 853 25.19 8.3 46.9 84 5.8 42.4 0 0
03:08 1024 30.24 853 25.19 8.3 47 83 5.7 42.2 0 0
03:09 1024 30.24 853 25.19 8.3 46.9 84 5.7 42.3 0 0
03:10 1024 30.24 853 25.19 8.2 46.8 84 5.7 42.2 0 0
03:11 1024 30.24 853 25.19 8.2 46.8 84 5.7 42.3 0 0
03:12 1024 30.24 853 25.19 8.2 46.8 84 5.6 42.1 0 0
03:13 1024 30.24 853 25.19 8.1 46.6 84 5.6 42.1 0 0
03:14 1024 30.24 853 25.19 8 46.4 85 5.6 42.1 0 0
03:15 1024 30.24 853 25.19 8 46.3 84 5.5 41.9 0 0
03:16 1024 30.24 853 25.19 7.8 46.1 86 5.6 42.1 0 0
03:17 1024 30.24 853 25.19 7.9 46.2 87 5.8 42.5 0 0
03:18 1024 30.24 853 25.19 8.1 46.5 86 5.9 42.6 0 0
03:19 1024 30.24 853 25.19 8.2 46.7 86 5.9 42.6 0 0
03:20 1024 30.24 853 25.19 8.2 46.8 85 5.9 42.7 0 0
03:21 1024 30.24 853 25.19 8.2 46.8 85 5.9 42.7 0 0
03:22 1024 30.24 853 25.19 8.3 46.9 86 6 42.8 0 0
03:23 1024 30.24 853 25.19 8.4 47 85 6 42.8 0 0
03:24 1024 30.24 853 25.19 8.5 47.2 85 6.1 42.9 0 0
03:25 1024 30.24 853 25.19 8.6 47.4 84 6.1 42.9 0 0
03:26 1024 30.24 853 25.19 8.7 47.7 83 6 42.9 0 0
03:27 1024 30.24 853 25.19 8.8 47.8 83 6 42.8 0 0
03:28 1024 30.24 853 25.19 8.8 47.9 83 6 42.9 0 0
03:29 1024 30.24 853 25.19 8.9 48 83 6.1 43 0 0
03:30 1024 30.24 853 25.19 9 48.3 82 6.1 42.9 0 0
03:31 1024 30.24 853 25.19 9.2 48.5 81 6.1 42.9 0 0
03:32 1024 30.24 853 25.19 9.3 48.7 80 6.1 42.9 0 0
03:33 1024 30.24 853 25.19 9.3 48.7 80 6.1 42.9 0 0
03:34 1024 30.24 853 25.19 9.1 48.4 81 6 42.8 0 0
03:35 1024 30.24 853 25.19 9 48.2 82 6.1 42.9 0 0
03:36 1024 30.24 853 25.19 9 48.2 82 6.1 42.9 0 0
03:37 1024 30.24 853 25.19 9 48.1 81 6 42.7 0 0
03:38 1024 30.24 853 25.19 9 48.2 81 6 42.8 0 0
03:39 1024 30.24 853 25.19 8.9 48 82 5.9 42.7 0 0
03:40 1024 30.24 853 25.19 8.8 47.8 82 5.9 42.7 0 0
03:41 1024 30.24 853 25.19 8.6 47.5 83 5.8 42.5 0 0
03:42 1024 30.24 853 25.19 8.5 47.3 83 5.8 42.5 0 0
03:43 1024 30.24 853 25.19 8.4 47.1 84 5.9 42.5 0 0
03:44 1024 30.24 853 25.19 8.4 47.1 84 5.8 42.5 0 0
03:45 1024 30.24 853 25.19 8.5 47.3 84 5.9 42.6 0 0
03:46 1024 30.24 853 25.19 8.7 47.7 83 6 42.8 0 0
03:47 1024 30.24 853 25.19 9 48.1 82 6.1 42.9 0 0
03:48 1024 30.24 853 25.19 9.2 48.6 81 6.1 43 0 0
03:49 1024 30.24 853 25.19 9.4 48.9 80 6.2 43.1 0 0
03:50 1024 30.24 853 25.19 9.5 49.1 80 6.2 43.2 0 0
03:51 1024 30.24 853 25.19 9.6 49.2 79 6.2 43.1 0 0
03:52 1024 30.24 853 25.19 9.6 49.2 79 6.2 43.1 0 0
03:53 1024 30.24 853 25.19 9.5 49.1 80 6.2 43.1 0 0
03:54 1024 30.24 853 25.19 9.4 48.9 80 6.2 43.2 0 0
03:55 1024 30.24 853 25.19 9.4 48.9 80 6.2 43.2 0 0
03:56 1024 30.24 853 25.19 9.3 48.7 81 6.2 43.2 0 0
03:57 1024 30.24 853 25.19 9.3 48.7 81 6.2 43.2 0 0
03:58 1024 30.24 853 25.19 9.2 48.6 82 6.3 43.3 0 0
03:59 1024 30.24 853 25.19 9.2 48.6 81 6.1 43 0 0
04:00 1024 30.24 853 25.19 9 48.3 82 6.1 43 0 0
04:01 1024 30.24 853 25.19 8.9 48 83 6.1 43 0 0
04:02 1024 30.24 853 25.19 8.7 47.7 84 6.2 43.1 0 0
04:03 1024 30.24 853 25.19 8.6 47.5 84 6.1 42.9 0 0
04:04 1024 30.24 853 25.19 8.6 47.5 84 6.1 43 0 0
04:05 1024 30.24 853 25.19 8.6 47.5 84 6 42.8 0 0
04:06 1024 30.24 853 25.19 8.4 47.2 85 6 42.8 0 0
04:07 1024 30.24 853 25.19 8.4 47.1 85 6.1 42.9 0 0
04:08 1024 30.24 853 25.19 8.5 47.3 84 6 42.8 0 0
04:09 1024 30.24 853 25.19 8.4 47.1 85 6.1 42.9 0 0
04:10 1024 30.24 853 25.19 8.4 47.1 86 6.1 43 0 0
04:11 1024 30.24 853 25.19 8.5 47.3 85 6.1 43 0 0
04:12 1024 30.24 853 25.19 8.7 47.7 83 6 42.9 0 0
04:13 1024 30.24 853 25.19 8.8 47.8 82 6 42.7 0 0
04:14 1024 30.24 853 25.19 8.7 47.6 84 6.1 42.9 0 0
04:15 1024 30.24 853 25.19 8.7 47.6 85 6.3 43.3 0 0
04:16 1024 30.24 853 25.19 9 48.1 84 6.3 43.4 0 0
04:17 1024 30.24 853 25.19 9.1 48.4 82 6.2 43.2 0 0
04:18 1024 30.24 853 25.19 9.2 48.5 82 6.3 43.3 0 0
04:19 1024 30.24 853 25.19 9.1 48.4 81 5.9 42.7 0 0
04:20 1024 30.24 853 25.19 9 48.3 81 6 42.8 0 0
04:21 1024 30.24 853 25.19 9.2 48.6 80 6 42.9 0 0
04:22 1024 30.24 853 25.19 9.5 49.1 79 6.1 42.9 0 0
04:23 1024 30.24 853 25.19 9.8 49.7 77 6.1 42.9 0 0
04:24 1024 30.24 853 25.19 10 49.9 77 6.1 43 0 0
04:25 1024 30.24 853 25.19 10 50.1 77 6.2 43.2 0 0
04:26 1024 30.24 853 25.19 10.1 50.3 77 6.2 43.2 0 0
04:27 1024 30.24 853 25.19 10.3 50.5 76 6.3 43.3 0 0
04:28 1024 30.24 853 25.19 10.2 50.4 77 6.3 43.4 0 0
04:29 1024 30.24 853 25.19 10.1 50.1 77 6.3 43.3 0 0
04:30 1024 30.24 853 25.19 9.9 49.8 78 6.3 43.3 0 0
04:31 1024 30.24 853 25.19 9.7 49.4 79 6.3 43.3 0 0
04:32 1024 30.24 853 25.19 9.5 49 80 6.3 43.3 0 0
04:33 1024 30.24 853 25.19 9.3 48.7 81 6.3 43.3 0 0
04:34 1024 30.24 853 25.19 9.2 48.5 82 6.2 43.2 0 0
04:35 1024 30.24 853 25.19 9 48.2 82 6.1 43 0 0
04:36 1024 30.24 853 25.19 8.9 48 83 6.1 43 0 0
04:37 1024 30.24 853 25.19 8.8 47.9 83 6.1 43 0 0
04:38 1024 30.24 853 25.19 8.7 47.7 83 6 42.8 0 0
04:39 1024 30.24 853 25.19 8.6 47.5 84 6 42.8 0 0
04:40 1024 30.24 853 25.19 8.5 47.4 84 6 42.8 0 0
04:41 1024 30.24 853 25.19 8.5 47.3 84 6 42.7 0 0
04:42 1024 30.24 853 25.19 8.4 47.1 84 5.9 42.6 0 0
04:43 1024 30.24 853 25.19 8.3 46.9 85 5.9 42.7 0 0
04:44 1024 30.24 853 25.19 8.2 46.8 86 6 42.8 0 0
04:45 1024 30.24 853 25.19 8.3 46.9 85 5.9 42.7 0 0
04:46 1024 30.24 853 25.19 8.3 46.9 85 5.9 42.7 0 0
04:47 1024 30.24 853 25.19 8.2 46.7 85 5.8 42.4 0 0
04:48 1024 30.24 853 25.19 8.1 46.5 87 6 42.8 0 0
04:49 1024 30.24 853 25.19 8 46.3 86 5.8 42.5 0 0
04:50 1024 30.24 853 25.19 7.9 46.2 87 5.9 42.6 0 0
04:51 1024 30.24 853 25.19 7.8 46.1 88 5.9 42.6 0 0
04:52 1024 30.24 853 25.19 7.8 46.1 88 6 42.7 0 0
04:53 1024 30.24 853 25.19 7.9 46.1 88 6 42.8 0 0
04:54 1024 30.24 853 25.19 8 46.3 88 6.1 42.9 0 0
04:55 1024 30.24 853 25.19 8.1 46.6 87 6.1 43 0 0
04:56 1024 30.24 853 25.19 8.2 46.8 86 6.1 42.9 0 0
04:57 1024 30.24 853 25.19 8.4 47.2 86 6.2 43.1 0 0
04:58 1024 30.24 853 25.19 8.6 47.4 85 6.2 43.1 0 0
04:59 1024 30.24 853 25.19 8.7 47.6 85 6.2 43.2 0 0
05:00 1024 30.24 853 25.19 8.7 47.7 84 6.2 43.1 0 0
05:01 1024 30.24 853 25.19 8.9 47.9 83 6.2 43.1 0 0
05:02 1024 30.24 853 25.19 8.9 48.1 83 6.2 43.2 0 0
05:03 1024 30.24 853 25.19 8.9 48.1 83 6.2 43.2 0 0
05:04 1024 30.24 853 25.19 8.9 47.9 83 6.2 43.2 0 0
05:05 1024 30.24 853 25.19 8.8 47.9 84 6.3 43.3 0 0
05:06 1024 30.24 853 25.19 8.8 47.9 84 6.3 43.4 0 0
05:07 1024 30.24 853 25.19 8.9 47.9 84 6.3 43.4 0 0
05:08 1024 30.24 853 25.19 8.9 48.1 84 6.4 43.5 0 0
05:09 1024 30.24 853 25.19 8.9 48 84 6.4 43.4 0 0
05:10 1024 30.24 853 25.19 8.9 48 84 6.4 43.5 0 0
05:11 1024 30.24 853 25.19 8.9 48 84 6.4 43.6 0 0
05:12 1024 30.24 853 25.19 8.8 47.9 85 6.4 43.5 0 0
05:13 1024 30.24 853 25.19 8.9 47.9 85 6.5 43.7 0 0
05:14 1024 30.24 853 25.19 8.8 47.9 85 6.5 43.7 0 0
05:15 1024 30.24 853 25.19 8.8 47.8 86 6.6 43.8 0 0
05:16 1024 30.24 853 25.19 8.9 47.9 86 6.6 43.8 0 0
05:17 1024 30.24 853 25.19 9 48.1 85 6.6 43.8 0 0
05:18 1024 30.24 853 25.19 9 48.2 85 6.6 44 0 0
05:19 1024 30.24 853 25.19 9 48.2 85 6.7 44 0 0
05:20 1024 30.24 853 25.19 9 48.2 85 6.6 44 0 0
05:21 1024 30.24 853 25.19 9 48.2 85 6.7 44 0 0
05:22 1024 30.24 853 25.19 9 48.2 86 6.7 44.1 0 0
05:23 1024 30.24 853 25.19 9 48.2 86 6.7 44.1 0 0
05:24 1024 30.24 853 25.19 9 48.2 86 6.7 44.1 0 0
05:25 1024 30.24 853 25.19 9.1 48.3 86 6.8 44.2 0 0
05:26 1024 30.24 853 25.19 9.1 48.4 85 6.8 44.2 0 0
05:27 1024 30.24 854 25.22 9.2 48.5 85 6.8 44.2 0 0
05:28 1024 30.24 853 25.19 9.2 48.6 84 6.7 44.1 0 0
05:29 1024 30.24 854 25.22 9.2 48.6 84 6.6 43.9 0 0
05:30 1024 30.24 854 25.22 9.2 48.5 84 6.6 44 0 0
05:31 1024 30.24 854 25.22 9.2 48.5 85 6.7 44.1 0 0
05:32 1024 30.24 854 25.22 9.1 48.3 85 6.7 44 0 0
05:33 1024 30.24 854 25.22 9 48.3 85 6.7 44.1 0 0
05:34 1024 30.24 854 25.22 9 48.2 86 6.7 44.1 0 0
05:35 1024 30.24 854 25.22 9 48.2 86 6.7 44.1 0 0
05:36 1024 30.24 854 25.22 9 48.2 86 6.7 44.1 0 0
05:37 1024 30.24 853 25.19 9 48.3 85 6.7 44.1 0 0
05:38 1024 30.24 853 25.19 9.1 48.3 85 6.7 44 0 0
05:39 1024 30.24 853 25.19 9.1 48.3 85 6.6 44 0 0
05:40 1024 30.24 853 25.19 9.1 48.3 85 6.7 44 0 0
05:41 1024 30.24 853 25.19 9 48.3 85 6.7 44.1 0 0
05:42 1024 30.24 853 25.19 9.1 48.4 85 6.7 44.1 0 0
05:43 1024 30.24 853 25.19 9.2 48.6 84 6.7 44.1 0 0
05:44 1024 30.24 853 25.19 9.3 48.8 84 6.7 44.1 0 0
05:45 1024 30.24 854 25.22 9.3 48.8 84 6.7 44.1 0 0
05:46 1024 30.24 854 25.22 9.4 48.9 83 6.7 44.1 0 0
05:47 1024 30.24 854 25.22 9.4 49 83 6.7 44.1 0 0
05:48 1024 30.24 854 25.22 9.3 48.7 84 6.7 44.1 0 0
05:49 1024 30.24 854 25.22 9.2 48.6 85 6.8 44.2 0 0
05:50 1024 30.24 854 25.22 9.2 48.5 85 6.7 44.1 0 0
05:51 1024 30.24 854 25.22 9.2 48.5 85 6.7 44.1 0 0
05:52 1024 30.24 854 25.22 9.2 48.5 85 6.8 44.2 0 0
05:53 1024 30.24 854 25.22 9.2 48.6 84 6.8 44.2 0 0
05:54 1024 30.24 854 25.22 9.3 48.7 84 6.8 44.2 0 0
05:55 1024 30.24 854 25.22 9.3 48.7 84 6.8 44.2 0 0
05:56 1024 30.24 854 25.22 9.3 48.8 84 6.8 44.2 0 0
05:57 1024 30.24 854 25.22 9.4 48.9 84 6.9 44.4 0 0
05:58 1024 30.24 854 25.22 9.4 48.9 84 6.9 44.4 0 0
05:59 1025 30.27 854 25.22 9.5 49 84 6.9 44.4 0 0
06:00 1025 30.27 854 25.22 9.6 49.2 83 6.9 44.4 0 0
06:01 1025 30.27 854 25.22 9.6 49.3 83 6.9 44.4 0 0
06:02 1025 30.27 854 25.22 9.7 49.4 83 6.9 44.5 0 0
06:03 1025 30.27 854 25.22 9.7 49.5 83 6.9 44.4 0 0
06:04 1025 30.27 854 25.22 9.8 49.6 82 6.9 44.4 0 0
06:05 1025 30.27 854 25.22 9.8 49.7 82 6.9 44.4 0 0
06:06 1025 30.27 854 25.22 9.9 49.8 81 6.8 44.3 0 0
06:07 1025 30.27 854 25.22 10 50 81 6.9 44.4 0 0
06:08 1025 30.27 854 25.22 10.1 50.2 81 7 44.7 0 0
06:09 1025 30.27 854 25.22 10.2 50.3 81 7.1 44.7 0 0
06:10 1025 30.27 854 25.22 10.3 50.5 81 7.1 44.9 0 0
06:11 1025 30.27 854 25.22 10.3 50.6 81 7.2 44.9 0 0
06:12 1025 30.27 854 25.22 10.5 50.8 80 7.2 45 0 0
06:13 1025 30.27 854 25.22 10.6 51.1 80 7.3 45.1 0 0
06:14 1025 30.27 854 25.22 10.7 51.3 80 7.4 45.3 0 0
06:15 1025 30.27 854 25.22 10.8 51.4 79 7.4 45.3 0 0
06:16 1025 30.27 854 25.22 10.9 51.7 79 7.4 45.3 0 0
06:17 1025 30.27 854 25.22 11 51.8 78 7.4 45.3 0 0
06:18 1025 30.27 854 25.22 11.1 51.9 78 7.4 45.4 0 0
06:19 1025 30.27 854 25.22 11.2 52.1 77 7.4 45.2 0 0
06:20 1025 30.27 854 25.22 11.2 52.2 77 7.3 45.1 0 0
06:21 1025 30.27 854 25.22 11.4 52.5 76 7.3 45.2 0 0
06:22 1025 30.27 854 25.22 11.5 52.7 75 7.3 45.2 0 0
06:23 1025 30.27 854 25.22 11.7 53.1 75 7.4 45.4 0 0
06:24 1025 30.27 854 25.22 11.8 53.3 75 7.5 45.6 0 0
06:25 1025 30.27 854 25.22 11.9 53.5 74 7.6 45.6 0 0
06:26 1025 30.27 854 25.22 12 53.6 75 7.6 45.7 0 0
06:27 1025 30.27 854 25.22 12.1 53.7 74 7.7 45.8 0 0
06:28 1025 30.27 854 25.22 12.1 53.8 75 7.8 46.1 0 0
06:29 1025 30.27 854 25.22 12.1 53.8 74 7.6 45.7 0 0
06:30 1025 30.27 854 25.22 12.1 53.8 73 7.5 45.6 0 0
06:31 1025 30.27 854 25.22 12.2 53.9 73 7.6 45.7 0 0
06:32 1025 30.27 854 25.22 12.1 53.9 74 7.7 45.8 0 0
06:33 1025 30.27 854 25.22 12.1 53.8 74 7.7 45.9 0 0
06:34 1025 30.27 854 25.22 12.1 53.8 75 7.8 46 0 0
06:35 1025 30.27 854 25.22 12.1 53.8 75 7.8 46 0 0
06:36 1025 30.27 854 25.22 12.1 53.7 75 7.7 45.9 0 0
06:37 1025 30.27 854 25.22 12 53.7 75 7.8 46 0 0
06:38 1025 30.27 854 25.22 12 53.6 75 7.7 45.9 0 0
06:39 1025 30.27 854 25.22 12 53.5 75 7.8 46 0 0
06:40 1025 30.27 854 25.22 11.9 53.4 75 7.7 45.9 0 0
06:41 1025 30.27 854 25.22 11.9 53.3 76 7.8 46.1 0 0
06:42 1025 30.27 854 25.22 11.7 53.1 77 7.8 46 0 0
06:43 1025 30.27 854 25.22 11.7 53 77 7.8 46 0 0
06:44 1025 30.27 854 25.22 11.6 52.8 77 7.7 45.9 0 0
06:45 1025 30.27 854 25.22 11.5 52.8 77 7.7 45.9 0 0
06:46 1025 30.27 854 25.22 11.4 52.6 78 7.7 45.8 0 0
06:47 1025 30.27 854 25.22 11.4 52.5 78 7.7 45.9 0 0
06:48 1025 30.27 854 25.22 11.3 52.4 78 7.7 45.9 0 0
06:49 1025 30.27 854 25.22 11.3 52.3 78 7.7 45.8 0 0
06:50 1025 30.27 854 25.22 11.3 52.3 78 7.6 45.7 0 0
06:51 1025 30.27 854 25.22 11.2 52.2 78 7.6 45.7 0 0
06:52 1025 30.27 854 25.22 11.2 52.1 79 7.6 45.7 0 0
06:53 1025 30.27 854 25.22 11.2 52.1 79 7.6 45.7 0 0
06:54 1025 30.27 854 25.22 11.1 52 78 7.5 45.6 0 0
06:55 1025 30.27 854 25.22 11.1 52.1 78 7.6 45.6 0 0
06:56 1025 30.27 854 25.22 11.1 52 78 7.5 45.5 0 0
06:57 1025 30.27 854 25.22 11.2 52.1 78 7.6 45.6 0 0
06:58 1025 30.27 854 25.22 11.2 52.1 79 7.6 45.7 0 0
06:59 1025 30.27 854 25.22 11.2 52.2 78 7.6 45.8 0 0
07:00 1025 30.27 854 25.22 11.2 52.2 78 7.7 45.8 0 0
07:01 1025 30.27 854 25.22 11.3 52.3 78 7.6 45.7 0 0
07:02 1025 30.27 854 25.22 11.3 52.4 78 7.7 45.8 0 0
07:03 1025 30.27 854 25.22 11.4 52.4 78 7.7 45.9 0 0
07:04 1025 30.27 854 25.22 11.4 52.4 78 7.7 45.9 0 0
07:05 1025 30.27 854 25.22 11.4 52.5 78 7.7 45.9 0 0
07:06 1025 30.27 854 25.22 11.5 52.6 78 7.7 45.9 0 0
07:07 1025 30.27 854 25.22 11.5 52.7 78 7.7 45.9 0 0
07:08 1025 30.27 854 25.22 11.5 52.6 78 7.8 46.1 0 0
07:09 1025 30.27 854 25.22 11.5 52.6 79 7.9 46.3 0 0
07:10 1025 30.27 854 25.22 11.4 52.5 80 8 46.4 0 0
07:11 1025 30.27 854 25.22 11.3 52.4 78 7.7 45.8 0 0
07:12 1025 30.27 854 25.22 11.2 52.2 79 7.8 46 0 0
07:13 1025 30.27 854 25.22 11.1 52.1 80 7.8 46 0 0
07:14 1025 30.27 854 25.22 11.1 51.9 80 7.7 45.9 0 0
07:15 1025 30.27 854 25.22 11 51.9 79 7.6 45.7 0 0
07:16 1025 30.27 854 25.22 11 51.9 79 7.6 45.7 0 0
07:17 1025 30.27 854 25.22 11 51.8 79 7.6 45.7 0 0
07:18 1025 30.27 854 25.22 11.1 52 80 7.7 45.9 0 0
07:19 1025 30.27 854 25.22 11.2 52.2 80 7.9 46.3 0 0
07:20 1025 30.27 854 25.22 11.4 52.5 78 7.8 46 0 0
07:21 1025 30.27 854 25.22 11.5 52.6 78 7.7 45.8 0 0
07:22 1025 30.27 854 25.22 11.5 52.7 79 7.9 46.2 0 0
07:23 1025 30.27 854 25.22 11.5 52.8 78 7.9 46.2 0 0
07:24 1025 30.27 854 25.22 11.5 52.8 79 8 46.4 0 0
07:25 1025 30.27 854 25.22 11.6 52.9 78 8 46.4 0 0
07:26 1025 30.27 854 25.22 11.8 53.2 78 8.1 46.5 0 0
07:27 1025 30.27 854 25.22 11.9 53.5 77 8 46.5 0 0
07:28 1025 30.27 854 25.22 12.2 54 77 8.3 47 0 0
07:29 1025 30.27 854 25.22 12.4 54.4 76 8.4 47.1 0 0
07:30 1025 30.27 854 25.22 12.6 54.6 77 8.6 47.5 0 0
07:31 1025 30.27 854 25.22 12.7 54.9 74 8.3 47 0 0
07:32 1025 30.27 855 25.25 12.9 55.1 75 8.5 47.3 0 0
07:33 1025 30.27 855 25.25 13 55.4 75 8.7 47.7 0 0
07:34 1025 30.27 855 25.25 13.1 55.7 72 8.2 46.8 0 0
07:35 1025 30.27 855 25.25 13.2 55.8 72 8.4 47 0 0
07:36 1025 30.27 855 25.25 13.3 55.9 71 8.1 46.6 0 0
07:37 1025 30.27 855 25.25 13.4 56 70 8.1 46.6 0 0
07:38 1025 30.27 855 25.25 13.5 56.2 70 8.1 46.6 0 0
07:39 1025 30.27 855 25.25 13.6 56.4 68 7.8 46.1 0 0
07:40 1025 30.27 855 25.25 13.7 56.7 70 8.4 47.1 0 0
07:41 1025 30.27 855 25.25 13.9 57 69 8.4 47.2 0 0
07:42 1025 30.27 855 25.25 14 57.2 68 8.2 46.8 0 0
07:43 1025 30.27 855 25.25 14.1 57.4 68 8.4 47.1 0 0
07:44 1025 30.27 855 25.25 14.2 57.5 68 8.4 47.1 0 0
07:45 1025 30.27 855 25.25 14.2 57.6 67 8.2 46.8 0 0
07:46 1025 30.27 855 25.25 14.3 57.7 69 8.7 47.6 0 0
07:47 1025 30.27 855 25.25 14.4 57.8 66 8.2 46.8 0 0
07:48 1025 30.27 855 25.25 14.5 58.1 65 8 46.4 0 0
07:49 1025 30.27 855 25.25 14.7 58.4 65 8.3 47 0 0
07:50 1025 30.27 855 25.25 14.8 58.6 64 8.1 46.6 0 0
07:51 1025 30.27 855 25.25 14.9 58.9 65 8.4 47.2 0 0
07:52 1025 30.27 855 25.25 15 59 63 8.2 46.7 0 0
07:53 1025 30.27 855 25.25 15.1 59.2 61 7.6 45.7 0 0
07:54 1025 30.27 855 25.25 15.2 59.4 63 8.3 46.9 0 0
07:55 1025 30.27 855 25.25 15.3 59.6 62 8.2 46.8 0 0
07:56 1025 30.27 855 25.25 15.4 59.6 61 7.9 46.1 0 0
07:57 1025 30.27 855 25.25 15.4 59.8 64 8.6 47.5 0 0
07:58 1025 30.27 855 25.25 15.6 60.1 60 7.9 46.3 0 0
07:59 1025 30.27 855 25.25 15.7 60.3 60 8 46.4 0 0
08:00 1026 30.3 855 25.25 15.8 60.4 60 8.1 46.6 0 0
08:01 1026 30.3 855 25.25 15.9 60.5 61 8.4 47.1 0 0
08:02 1026 30.3 855 25.25 16 60.7 60 8.3 46.9 0 0
08:03 1026 30.3 855 25.25 16 60.8 59 8 46.4 0 0
08:04 1026 30.3 855 25.25 16.1 60.9 58 7.9 46.3 0 0
08:05 1026 30.3 855 25.25 16.2 61.1 58 7.9 46.2 0 0
08:06 1026 30.3 855 25.25 16.2 61.2 60 8.5 47.2 0 0
08:07 1026 30.3 855 25.25 16.3 61.3 58 8.1 46.5 0 0
08:08 1025 30.27 855 25.25 16.2 61.2 59 8.4 47.1 0 0
08:09 1026 30.3 855 25.25 16.2 61.2 57 7.8 46.1 0 0
08:10 1025 30.27 855 25.25 16.2 61.2 56 7.6 45.8 0 0
08:11 1025 30.27 855 25.25 16.3 61.3 56 7.6 45.6 0 0
08:12 1025 30.27 855 25.25 16.3 61.4 56 7.7 45.8 0 0
08:13 1025 30.27 855 25.25 16.4 61.5 59 8.5 47.3 0 0
08:14 1025 30.27 855 25.25 16.5 61.8 57 8.1 46.6 0 0
08:15 1025 30.27 855 25.25 16.6 61.9 58 8.4 47.2 0 0
08:16 1025 30.27 855 25.25 16.6 62 57 8.3 46.9 0 0
08:17 1026 30.3 855 25.25 16.8 62.2 58 8.4 47.2 0 0
08:18 1026 30.3 855 25.25 17 62.5 57 8.4 47.2 0 0
08:19 1026 30.3 855 25.25 17.2 62.9 57 8.6 47.5 0 0
08:20 1026 30.3 855 25.25 17.4 63.2 56 8.6 47.5 0 0
08:21 1026 30.3 855 25.25 17.4 63.4 56 8.6 47.6 0 0
08:22 1026 30.3 855 25.25 17.5 63.5 57 8.9 48 0 0
08:23 1026 30.3 855 25.25 17.7 63.8 55 8.7 47.7 0 0
08:24 1026 30.3 855 25.25 17.6 63.7 56 8.7 47.7 0 0
08:25 1026 30.3 855 25.25 17.5 63.6 55 8.5 47.3 0 0
08:26 1026 30.3 855 25.25 17.5 63.5 56 8.8 47.9 0 0
08:27 1026 30.3 855 25.25 17.5 63.5 58 9.3 48.8 0 0
08:28 1026 30.3 855 25.25 17.7 63.8 55 8.5 47.3 0 0
08:29 1026 30.3 855 25.25 17.8 64 57 9.3 48.7 0 0
08:30 1026 30.3 855 25.25 17.9 64.2 53 8.3 47 0 0
08:31 1026 30.3 855 25.25 17.8 64 54 8.6 47.4 0 0
08:32 1026 30.3 855 25.25 17.8 64.1 54 8.4 47.2 0 0
08:33 1026 30.3 855 25.25 17.8 64.1 55 8.8 47.8 0 0
08:34 1026 30.3 855 25.25 17.9 64.2 55 8.8 47.8 0 0
08:35 1026 30.3 855 25.25 18 64.3 56 9.1 48.4 0 0
08:36 1026 30.3 855 25.25 18 64.4 55 8.8 47.9 0 0
08:37 1026 30.3 855 25.25 18.1 64.5 56 9.2 48.6 0 0
08:38 1026 30.3 855 25.25 18.2 64.7 55 9 48.2 0 0
08:39 1026 30.3 855 25.25 18.1 64.5 54 8.6 47.5 0 0
08:40 1026 30.3 855 25.25 18.1 64.5 54 8.8 47.9 0 0
08:41 1026 30.3 855 25.25 18 64.3 55 8.8 47.9 0 0
08:42 1026 30.3 855 25.25 17.9 64.3 55 8.9 48 0 0
08:43 1026 30.3 855 25.25 17.9 64.2 56 9.1 48.4 0 0
08:44 1026 30.3 855 25.25 18 64.5 52 8.2 46.8 0 0
08:45 1026 30.3 855 25.25 18 64.5 53 8.5 47.3 0 0
08:46 1026 30.3 855 25.25 17.8 64 54 8.5 47.3 0 0
08:47 1026 30.3 855 25.25 17.6 63.7 56 8.7 47.7 0 0
08:48 1026 30.3 855 25.25 17.5 63.5 55 8.6 47.4 0 0
08:49 1026 30.3 855 25.25 17.3 63.1 55 8.4 47 0 0
08:50 1026 30.3 855 25.25 17.1 62.9 58 8.8 47.8 0 0
08:51 1026 30.3 855 25.25 17 62.6 58 8.8 47.9 0 0
08:52 1026 30.3 855 25.25 16.9 62.3 59 8.8 47.8 0 0
08:53 1026 30.3 855 25.25 16.8 62.3 59 8.9 48.1 0 0
08:54 1026 30.3 855 25.25 16.8 62.2 60 9.1 48.3 0 0
08:55 1026 30.3 855 25.25 16.8 62.2 61 9.2 48.6 0 0
08:56 1026 30.3 855 25.25 16.6 61.9 61 9.2 48.6 0 0
08:57 1026 30.3 855 25.25 16.7 62 60 9 48.3 0 0
08:58 1026 30.3 855 25.25 16.6 61.8 61 9.1 48.3 0 0
08:59 1026 30.3 855 25.25 16.6 61.9 61 9.2 48.6 0 0
09:00 1026 30.3 855 25.25 16.6 61.9 61 9.2 48.5 0 0
09:01 1026 30.3 855 25.25 16.6 61.9 62 9.3 48.7 0 0
09:02 1026 30.3 855 25.25 16.6 61.9 62 9.5 49.1 0 0
09:03 1026 30.3 855 25.25 16.6 61.8 63 9.5 49.2 0 0
09:04 1026 30.3 855 25.25 16.5 61.8 62 9.4 48.9 0 0
09:05 1026 30.3 855 25.25 16.5 61.7 63 9.4 49 0 0
09:06 1026 30.3 855 25.25 16.5 61.7 63 9.5 49.1 0 0
09:07 1026 30.3 855 25.25 16.5 61.7 64 9.6 49.4 0 0
09:08 1026 30.3 855 25.25 16.5 61.6 64 9.8 49.6 0 0
09:09 1026 30.3 855 25.25 16.4 61.4 64 9.6 49.2 0 0
09:10 1026 30.3 855 25.25 16.3 61.3 65 9.8 49.6 0 0
09:11 1026 30.3 855 25.25 16.2 61.2 64 9.6 49.3 0 0
09:12 1026 30.3 855 25.25 16.2 61.1 65 9.6 49.4 0 0
09:13 1026 30.3 855 25.25 16.1 61 64 9.4 48.9 0 0
09:14 1026 30.3 855 25.25 16.1 61 64 9.4 48.9 0 0
09:15 1026 30.3 855 25.25 16.1 61.1 64 9.5 49.1 0 0
09:16 1026 30.3 855 25.25 16.2 61.1 64 9.5 49 0 0
09:17 1026 30.3 855 25.25 16.2 61.2 63 9.4 48.8 0 0
09:18 1026 30.3 855 25.25 16.3 61.3 63 9.4 49 0 0
09:19 1026 30.3 855 25.25 16.5 61.6 63 9.4 49 0 0
09:20 1026 30.3 855 25.25 16.7 62.1 62 9.5 49 0 0
09:21 1026 30.3 855 25.25 17.1 62.8 59 9.1 48.3 0 0
09:22 1026 30.3 855 25.25 17.4 63.2 59 9.5 49 0 0
09:23 1026 30.3 855 25.25 17.6 63.7 56 9 48.1 0 0
09:24 1026 30.3 855 25.25 17.7 63.9 55 8.7 47.7 0 0
09:25 1026 30.3 855 25.25 17.8 64.1 59 9.8 49.6 0 0
09:26 1026 30.3 855 25.25 18 64.5 55 9.1 48.3 0 0
09:27 1026 30.3 855 25.25 18.2 64.7 54 8.8 47.8 0 0
09:28 1026 30.3 855 25.25 18.3 64.9 55 9.2 48.6 0 0
09:29 1026 30.3 855 25.25 18.5 65.3 54 9.1 48.5 0 0
09:30 1026 30.3 855 25.25 18.6 65.4 56 9.7 49.4 0 0
09:31 1026 30.3 855 25.25 18.5 65.4 54 9.2 48.5 0 0
09:32 1026 30.3 855 25.25 18.6 65.4 55 9.5 49.1 0 0
09:33 1026 30.3 855 25.25 18.7 65.6 54 9.2 48.5 0 0
09:34 1026 30.3 855 25.25 18.7 65.6 54 9.2 48.5 0 0
09:35 1026 30.3 855 25.25 18.7 65.6 53 9 48.2 0 0
09:36 1026 30.3 855 25.25 18.7 65.6 54 9.2 48.5 0 0
09:37 1026 30.3 855 25.25 18.6 65.5 55 9.6 49.3 0 0
09:38 1026 30.3 855 25.25 18.7 65.7 54 9.3 48.7 0 0
09:39 1026 30.3 855 25.25 18.8 65.8 53 9.2 48.5 0 0
09:40 1026 30.3 855 25.25 18.8 65.8 55 9.7 49.5 0 0
09:41 1026 30.3 855 25.25 18.8 65.8 54 9.4 48.9 0 0
09:42 1026 30.3 855 25.25 18.9 66 55 9.7 49.4 0 0
09:43 1026 30.3 855 25.25 19.1 66.4 52 9.1 48.3 0 0
09:44 1026 30.3 855 25.25 19 66.3 52 9 48.2 0 0
09:45 1026 30.3 855 25.25 19.1 66.3 51 8.9 48 0 0
09:46 1026 30.3 855 25.25 19.1 66.3 52 9 48.2 0 0
09:47 1026 30.3 855 25.25 18.9 66.1 51 8.8 47.9 0 0
09:48 1026 30.3 855 25.25 19 66.2 53 9.2 48.5 0 0
09:49 1026 30.3 855 25.25 19.2 66.6 51 8.9 48 0 0
09:50 1026 30.3 855 25.25 19.4 66.8 53 9.5 49.2 0 0
09:51 1026 30.3 855 25.25 19.5 67 50 9 48.1 0 0
09:52 1026 30.3 855 25.25 19.4 67 51 9.2 48.6 0 0
09:53 1026 30.3 855 25.25 19.5 67.1 50 9.1 48.3 0 0
09:54 1026 30.3 855 25.25 19.6 67.2 51 9.3 48.8 0 0
09:55 1026 30.3 855 25.25 19.6 67.2 50 9 48.2 0 0
09:56 1026 30.3 855 25.25 19.4 66.9 50 8.9 48.1 0 0
09:57 1026 30.3 855 25.25 19.3 66.7 51 9 48.2 0 0
09:58 1026 30.3 855 25.25 19.3 66.7 51 9 48.2 0 0
09:59 1026 30.3 855 25.25 19.4 66.9 50 8.8 47.9 0 0
10:00 1026 30.3 855 25.25 19.5 67.1 50 9 48.2 0 0
10:01 1026 30.3 855 25.25 19.6 67.2 50 8.9 48 0 0
10:02 1026 30.3 855 25.25 19.7 67.5 50 9 48.2 0 0
10:03 1026 30.3 855 25.25 19.8 67.6 50 9.1 48.5 0 0
10:04 1026 30.3 855 25.25 19.7 67.5 50 9.1 48.4 0 0
10:05 1026 30.3 855 25.25 19.7 67.4 51 9.5 49.2 0 0
10:06 1026 30.3 855 25.25 19.7 67.4 52 9.6 49.3 0 0
10:07 1026 30.3 855 25.25 19.7 67.5 52 9.6 49.4 0 0
10:08 1026 30.3 855 25.25 19.9 67.8 53 10.2 50.3 0 0
10:09 1026 30.3 855 25.25 20 67.9 52 10.1 50.1 0 0
10:10 1026 30.3 855 25.25 20 68 54 10.5 50.8 0 0
10:11 1026 30.3 855 25.25 20.2 68.3 52 10.1 50.2 0 0
10:12 1026 30.3 855 25.25 20.2 68.3 51 9.8 49.7 0 0
10:13 1026 30.3 855 25.25 20 68 52 9.9 49.9 0 0
10:14 1026 30.3 855 25.25 19.9 67.7 51 9.7 49.4 0 0
10:15 1026 30.3 855 25.25 19.8 67.7 54 10.5 50.8 0 0
10:16 1026 30.3 855 25.25 20 68.1 51 9.9 49.7 0 0
10:17 1026 30.3 855 25.25 20.1 68.2 51 9.7 49.4 0 0
10:18 1026 30.3 855 25.25 19.9 67.9 51 9.7 49.4 0 0
10:19 1026 30.3 855 25.25 19.9 67.9 52 9.9 49.9 0 0
10:20 1026 30.3 855 25.25 19.9 67.9 50 9.3 48.8 0 0
10:21 1026 30.3 855 25.25 19.9 67.8 52 9.8 49.7 0 0
10:22 1026 30.3 855 25.25 19.9 67.9 52 9.9 49.8 0 0
10:23 1026 30.3 855 25.25 19.8 67.7 54 10.4 50.7 0 0
10:24 1026 30.3 855 25.25 19.7 67.5 53 10.1 50.2 0 0
10:25 1026 30.3 855 25.25 19.8 67.6 52 9.7 49.4 0 0
10:26 1026 30.3 855 25.25 19.8 67.7 51 9.4 49 0 0
10:27 1026 30.3 855 25.25 20 68 51 9.8 49.7 0 0
10:28 1026 30.3 855 25.25 20.1 68.3 47 8.8 47.8 0 0
10:29 1026 30.3 855 25.25 20 68.1 49 9.3 48.7 0 0
10:30 1026 30.3 855 25.25 20 68 49 9.1 48.3 0 0
10:31 1026 30.3 855 25.25 19.9 67.9 51 9.7 49.5 0 0
10:32 1026 30.3 855 25.25 20.1 68.2 50 9.5 49 0 0
10:33 1026 30.3 855 25.25 20.3 68.5 48 9 48.2 0 0
10:34 1026 30.3 855 25.25 20.2 68.4 48 8.9 48.1 0 0
10:35 1026 30.3 855 25.25 20.3 68.5 47 8.8 47.8 0 0
10:36 1026 30.3 855 25.25 20.3 68.6 48 9 48.2 0 0
10:37 1026 30.3 855 25.25 20.5 68.8 50 9.9 49.9 0 0
10:38 1026 30.3 855 25.25 20.8 69.4 51 10.3 50.5 0 0
10:39 1026 30.3 855 25.25 21.1 69.9 49 9.9 49.9 0 0
10:40 1026 30.3 855 25.25 21 69.8 43 8 46.4 0 0
10:41 1026 30.3 855 25.25 20.8 69.4 41 7.3 45.2 0 0
10:42 1026 30.3 855 25.25 20.5 69 46 8.7 47.6 0 0
10:43 1026 30.3 855 25.25 20.5 69 45 8.2 46.8 0 0
10:44 1026 30.3 855 25.25 20.7 69.2 44 8.2 46.7 0 0
10:45 1026 30.3 855 25.25 20.7 69.2 43 7.8 46 0 0
10:46 1026 30.3 855 25.25 20.7 69.3 45 8.7 47.6 0 0
10:47 1026 30.3 855 25.25 20.9 69.6 44 8.4 47.1 0 0
10:48 1026 30.3 855 25.25 20.8 69.5 48 9.5 49.1 0 0
10:49 1026 30.3 855 25.25 21 69.7 42 7.7 45.8 0 0
10:50 1026 30.3 855 25.25 20.9 69.5 45 8.7 47.6 0 0
10:51 1026 30.3 855 25.25 20.8 69.5 44 8.2 46.8 0 0
10:52 1026 30.3 855 25.25 20.7 69.2 45 8.6 47.5 0 0
10:53 1026 30.3 855 25.25 20.7 69.3 42 7.6 45.7 0 0
10:54 1026 30.3 855 25.25 20.7 69.2 44 8.1 46.6 0 0
10:55 1026 30.3 855 25.25 20.8 69.4 45 8.7 47.6 0 0
10:56 1026 30.3 855 25.25 21 69.8 45 8.9 47.9 0 0
10:57 1026 30.3 855 25.25 21 69.8 43 8.1 46.5 0 0
10:58 1026 30.3 855 25.25 21 69.8 46 9.2 48.6 0 0
10:59 1026 30.3 855 25.25 21.3 70.4 40 7.5 45.4 0 0
11:00 1026 30.3 855 25.25 21.6 70.9 42 8.4 47 0 0
11:01 1026 30.3 855 25.25 21.7 71 42 8.5 47.3 0 0
11:02 1026 30.3 855 25.25 21.6 70.8 40 7.7 45.9 0 0
11:03 1026 30.3 855 25.25 21.4 70.4 41 7.7 45.8 0 0
11:04 1026 30.3 855 25.25 21.5 70.6 46 9.5 49.1 0 0
11:05 1026 30.3 855 25.25 21.6 70.9 40 7.7 45.9 0 0
11:06 1026 30.3 855 25.25 21.5 70.6 40 7.5 45.5 0 0
11:07 1026 30.3 855 25.25 21.4 70.6 44 8.9 48 0 0
11:08 1026 30.3 855 25.25 21.6 70.8 41 8 46.4 0 0
11:09 1026 30.3 855 25.25 21.4 70.6 42 8.3 47 0 0
11:10 1026 30.3 855 25.25 21.3 70.3 43 8.4 47 0 0
11:11 1026 30.3 855 25.25 21.2 70.1 43 8.2 46.7 0 0
11:12 1026 30.3 855 25.25 21.1 69.9 43 8.1 46.6 0 0
11:13 1026 30.3 855 25.25 21.1 70 43 8.2 46.7 0 0
11:14 1026 30.3 855 25.25 21.1 70 43 8.2 46.8 0 0
11:15 1026 30.3 855 25.25 21.1 69.9 43 8.1 46.5 0 0
11:16 1026 30.3 855 25.25 21.1 69.9 45 9 48.2 0 0
11:17 1026 30.3 855 25.25 21.3 70.3 44 8.6 47.5 0 0
11:18 1026 30.3 855 25.25 21.3 70.4 43 8.4 47.1 0 0
11:19 1026 30.3 855 25.25 21.2 70.2 43 8.3 46.9 0 0
11:20 1026 30.3 855 25.25 21.2 70.2 46 9.3 48.8 0 0
11:21 1026 30.3 855 25.25 21.4 70.6 42 8.3 46.9 0 0
11:22 1026 30.3 855 25.25 21.6 70.9 45 9.4 49 0 0
11:23 1026 30.3 855 25.25 21.7 71.1 41 8.1 46.5 0 0
11:24 1026 30.3 855 25.25 21.7 71 41 8 46.5 0 0
11:25 1026 30.3 855 25.25 21.5 70.7 44 8.8 47.9 0 0
11:26 1026 30.3 855 25.25 21.4 70.5 43 8.5 47.3 0 0
11:27 1026 30.3 855 25.25 21.4 70.6 41 7.8 46.1 0 0
11:28 1026 30.3 855 25.25 21.5 70.6 41 8 46.3 0 0
11:29 1026 30.3 855 25.25 21.6 70.8 43 8.5 47.2 0 0
11:30 1026 30.3 855 25.25 21.7 71.1 43 8.8 47.9 0 0
11:31 1026 30.3 855 25.25 22 71.6 40 7.8 46.1 0 0
11:32 1026 30.3 855 25.25 22.2 72 42 9 48.2 0 0
11:33 1026 30.3 855 25.25 22.2 71.9 41 8.5 47.2 0 0
11:34 1026 30.3 855 25.25 22.1 71.8 40 8.2 46.8 0 0
11:35 1026 30.3 855 25.25 22.2 72 40 8.2 46.8 0 0
11:36 1026 30.3 855 25.25 22.3 72.2 40 8.4 47.1 0 0
11:37 1026 30.3 855 25.25 22.4 72.3 41 8.6 47.4 0 0
11:38 1026 30.3 855 25.25 22.3 72.2 42 8.9 47.9 0 0
11:39 1026 30.3 855 25.25 22.3 72.1 43 9.2 48.6 0 0
11:40 1026 30.3 855 25.25 22.4 72.3 39 8.1 46.6 0 0
11:41 1026 30.3 855 25.25 22.6 72.6 40 8.5 47.4 0 0
11:42 1026 30.3 855 25.25 22.5 72.6 39 8 46.4 0 0
11:43 1026 30.3 855 25.25 22.4 72.4 42 9 48.3 0 0
11:44 1026 30.3 855 25.25 22.4 72.3 42 9.1 48.4 0 0
11:45 1026 30.3 855 25.25 22.4 72.4 41 8.9 48 0 0
11:46 1026 30.3 855 25.25 22.4 72.3 42 8.9 48 0 0
11:47 1026 30.3 855 25.25 22.3 72.1 42 9 48.2 0 0
11:48 1026 30.3 855 25.25 22.3 72.1 40 8.3 46.9 0 0
11:49 1026 30.3 855 25.25 22.2 72 41 8.4 47.1 0 0
11:50 1026 30.3 855 25.25 22.2 71.9 41 8.4 47.2 0 0
11:51 1026 30.3 855 25.25 22.2 72 41 8.4 47 0 0
11:52 1026 30.3 855 25.25 22.2 71.9 39 7.7 45.8 0 0
11:53 1026 30.3 855 25.25 22.1 71.7 42 8.6 47.5 0 0
11:54 1026 30.3 855 25.25 22.2 71.9 42 8.8 47.8 0 0
11:55 1026 30.3 855 25.25 22.4 72.2 41 8.5 47.3 0 0
11:56 1026 30.3 855 25.25 22.5 72.5 40 8.4 47 0 0
11:57 1026 30.3 855 25.25 22.6 72.6 39 8.1 46.5 0 0
11:58 1026 30.3 855 25.25 22.6 72.6 40 8.4 47 0 0
11:59 1026 30.3 855 25.25 22.8 73 39 8.3 47 0 0
12:00 1026 30.3 855 25.25 22.8 73 39 8.3 46.9 0 0
12:01 1026 30.3 855 25.25 22.7 72.8 37 7.4 45.3 0 0
12:02 1026 30.3 855 25.25 22.6 72.7 37 7.4 45.4 0 0
12:03 1026 30.3 855 25.25 22.6 72.6 38 7.6 45.7 0 0
12:04 1026 30.3 855 25.25 22.5 72.5 40 8.3 47 0 0
12:05 1026 30.3 855 25.25 22.6 72.7 37 7.3 45.2 0 0
12:06 1026 30.3 855 25.25 22.7 72.9 40 8.5 47.2 0 0
12:07 1026 30.3 855 25.25 23 73.3 37 7.8 46.1 0 0
12:08 1026 30.3 855 25.25 23.2 73.7 38 8.4 47.2 0 0
12:09 1026 30.3 855 25.25 23.3 73.9 36 7.6 45.7 0 0
12:10 1026 30.3 855 25.25 23.4 74.1 35 7.5 45.4 0 0
12:11 1026 30.3 855 25.25 23.5 74.2 35 7.3 45.2 0 0
12:12 1026 30.3 855 25.25 23.5 74.3 36 7.7 45.9 0 0
12:13 1026 30.3 855 25.25 23.7 74.6 39 9.2 48.5 0 0
12:14 1026 30.3 855 25.25 23.8 74.8 34 7.4 45.3 0 0
12:15 1026 30.3 855 25.25 23.6 74.5 36 7.7 45.8 0 0
12:16 1026 30.3 855 25.25 23.4 74.2 36 7.6 45.7 0 0
12:17 1026 30.3 855 25.25 23.3 74 37 8 46.3 0 0
12:18 1026 30.3 855 25.25 23.3 73.9 37 7.9 46.2 0 0
12:19 1026 30.3 855 25.25 23.3 74 36 7.8 46 0 0
12:20 1026 30.3 855 25.25 23.4 74.1 36 7.6 45.6 0 0
12:21 1026 30.3 855 25.25 23.5 74.2 36 7.6 45.6 0 0
12:22 1026 30.3 855 25.25 23.5 74.3 35 7.2 45 0 0
12:23 1026 30.3 855 25.25 23.6 74.5 34 6.9 44.4 0 0
12:24 1026 30.3 855 25.25 23.7 74.7 34 7.1 44.9 0 0
12:25 1026 30.3 855 25.25 23.6 74.5 34 6.9 44.3 0 0
12:26 1026 30.3 855 25.25 23.4 74.2 34 6.9 44.4 0 0
12:27 1026 30.3 855 25.25 23.3 73.9 36 7.4 45.3 0 0
12:28 1026 30.3 855 25.25 23.3 74 34 7 44.5 0 0
12:29 1026 30.3 855 25.25 23.3 73.9 35 7.1 44.7 0 0
12:30 1026 30.3 855 25.25 23.3 73.9 34 6.8 44.3 0 0
12:31 1026 30.3 855 25.25 23.2 73.8 34 6.8 44.3 0 0
12:32 1026 30.3 855 25.25 23.3 73.9 35 7.3 45.2 0 0
12:33 1026 30.3 855 25.25 23.3 74 36 7.6 45.6 0 0
12:34 1026 30.3 855 25.25 23.3 73.9 35 7.3 45.2 0 0
12:35 1026 30.3 855 25.25 23.3 73.9 38 8.2 46.7 0 0
12:36 1026 30.3 855 25.25 23.6 74.5 38 8.7 47.7 0 0
12:37 1026 30.3 855 25.25 24 75.2 36 8.4 47.1 0 0
12:38 1026 30.3 855 25.25 24.2 75.6 33 7.2 45 0 0
12:39 1026 30.3 855 25.25 24.3 75.7 35 8 46.5 0 0
12:40 1026 30.3 855 25.25 24.3 75.8 33 7.4 45.3 0 0
12:41 1026 30.3 855 25.25 24.3 75.7 34 7.5 45.4 0 0
12:42 1026 30.3 855 25.25 24.3 75.8 35 8.1 46.5 0 0
12:43 1025 30.27 855 25.25 24.4 76 37 8.9 48.1 0 0
12:44 1026 30.3 855 25.25 24.5 76.2 33 7.6 45.6 0 0
12:45 1026 30.3 855 25.25 24.5 76.1 33 7.6 45.6 0 0
12:46 1025 30.27 855 25.25 24.5 76 33 7.4 45.2 0 0
12:47 1026 30.3 855 25.25 24.5 76 33 7.1 44.9 0 0
12:48 1026 30.3 855 25.25 24.4 75.9 33 7.2 44.9 0 0
12:49 1025 30.27 855 25.25 24.3 75.8 33 7.1 44.8 0 0
12:50 1025 30.27 855 25.25 24.4 75.9 33 7.5 45.5 0 0
12:51 1025 30.27 855 25.25 24.5 76.2 33 7.6 45.6 0 0
12:52 1026 30.3 855 25.25 24.7 76.4 33 7.4 45.3 0 0
12:53 1026 30.3 855 25.25 24.6 76.2 32 7.2 45 0 0
12:54 1025 30.27 855 25.25 24.5 76 33 7.2 44.9 0 0
12:55 1025 30.27 855 25.25 24.5 76.1 33 7.4 45.3 0 0
12:56 1025 30.27 855 25.25 24.6 76.3 33 7.6 45.7 0 0
12:57 1025 30.27 855 25.25 24.9 76.9 32 7.4 45.3 0 0
12:58 1025 30.27 855 25.25 24.8 76.7 32 7.3 45.1 0 0
12:59 1025 30.27 855 25.25 24.7 76.5 31 6.9 44.4 0 0
13:00 1025 30.27 855 25.25 24.6 76.2 33 7.6 45.6 0 0
13:01 1025 30.27 855 25.25 24.6 76.2 31 6.7 44.1 0 0
13:02 1025 30.27 855 25.25 24.6 76.2 31 6.7 44.1 0 0
13:03 1025 30.27 855 25.25 24.5 76.1 32 6.8 44.3 0 0
13:04 1025 30.27 855 25.25 24.6 76.2 32 7 44.7 0 0
13:05 1025 30.27 854 25.22 24.8 76.7 32 7.4 45.3 0 0
13:06 1025 30.27 854 25.22 24.9 76.7 32 7.1 44.8 0 0
13:07 1025 30.27 854 25.22 24.9 76.7 32 7.1 44.9 0 0
13:08 1025 30.27 854 25.22 24.9 76.7 32 7.4 45.3 0 0
13:09 1025 30.27 854 25.22 25 76.9 32 7.5 45.6 0 0
13:10 1025 30.27 854 25.22 25 77 33 7.7 45.8 0 0
13:11 1025 30.27 854 25.22 25.1 77.3 32 7.7 45.8 0 0
13:12 1025 30.27 854 25.22 25.2 77.4 33 8 46.3 0 0
13:13 1025 30.27 854 25.22 25.2 77.4 35 8.8 47.9 0 0
13:14 1025 30.27 854 25.22 25.4 77.8 31 7.2 44.9 0 0
13:15 1025 30.27 854 25.22 25.5 77.8 32 7.6 45.7 0 0
13:16 1025 30.27 854 25.22 25.3 77.6 32 7.6 45.8 0 0
13:17 1025 30.27 854 25.22 25.4 77.6 34 8.8 47.8 0 0
13:18 1025 30.27 854 25.22 25.5 77.8 31 7.5 45.5 0 0
13:19 1025 30.27 854 25.22 25.4 77.6 35 9 48.2 0 0
13:20 1025 30.27 854 25.22 25.3 77.5 33 7.9 46.2 0 0
13:21 1025 30.27 854 25.22 25.1 77.3 32 7.6 45.6 0 0
13:22 1025 30.27 854 25.22 25.1 77.2 32 7.5 45.4 0 0
13:23 1025 30.27 854 25.22 25.1 77.2 32 7.7 45.9 0 0
13:24 1025 30.27 854 25.22 25.3 77.5 33 8 46.5 0 0
13:25 1025 30.27 854 25.22 25.6 78.1 31 7.3 45.2 0 0
13:26 1025 30.27 854 25.22 25.8 78.5 30 7.3 45.2 0 0
13:27 1025 30.27 854 25.22 25.9 78.7 31 7.9 46.3 0 0
13:28 1025 30.27 854 25.22 25.8 78.5 31 7.6 45.7 0 0
13:29 1025 30.27 854 25.22 25.7 78.2 32 7.9 46.3 0 0
13:30 1025 30.27 854 25.22 25.7 78.3 31 7.4 45.3 0 0
13:31 1025 30.27 854 25.22 25.7 78.2 31 7.7 45.9 0 0
13:32 1025 30.27 854 25.22 25.6 78 31 7.5 45.5 0 0
13:33 1025 30.27 854 25.22 25.4 77.6 33 8.1 46.6 0 0
13:34 1025 30.27 854 25.22 25.5 77.8 32 7.6 45.7 0 0
13:35 1025 30.27 854 25.22 25.8 78.4 31 7.5 45.5 0 0
13:36 1025 30.27 854 25.22 25.9 78.6 31 7.8 46 0 0
13:37 1025 30.27 854 25.22 26 78.8 33 8.7 47.7 0 0
13:38 1025 30.27 854 25.22 26.1 79 31 7.8 46 0 0
13:39 1025 30.27 854 25.22 25.9 78.7 31 7.8 46.1 0 0
13:40 1025 30.27 854 25.22 25.8 78.5 31 7.9 46.2 0 0
13:41 1025 30.27 854 25.22 25.8 78.4 32 7.9 46.2 0 0
13:42 1025 30.27 854 25.22 25.8 78.5 32 8.2 46.8 0 0
13:43 1025 30.27 854 25.22 26 78.7 31 7.7 45.9 0 0
13:44 1025 30.27 854 25.22 26.2 79.1 30 7.3 45.2 0 0
13:45 1025 30.27 854 25.22 26.5 79.6 28 6.8 44.3 0 0
13:46 1025 30.27 854 25.22 26.7 80 29 7.2 45 0 0
13:47 1025 30.27 854 25.22 26.8 80.3 28 7.2 45 0 0
13:48 1025 30.27 854 25.22 26.9 80.4 27 6.5 43.7 0 0
13:49 1025 30.27 854 25.22 26.8 80.2 28 7.2 45 0 0
13:50 1025 30.27 854 25.22 26.7 80.1 27 6.5 43.7 0 0
13:51 1025 30.27 854 25.22 26.8 80.2 28 7.1 44.9 0 0
13:52 1025 30.27 854 25.22 26.7 80.1 28 6.9 44.4 0 0
13:53 1025 30.27 854 25.22 26.6 80 27 6.2 43.2 0 0
13:54 1025 30.27 854 25.22 26.6 79.8 27 6.3 43.3 0 0
13:55 1025 30.27 854 25.22 26.7 80 28 6.9 44.5 0 0
13:56 1025 30.27 854 25.22 26.6 79.9 28 6.7 44 0 0
13:57 1025 30.27 854 25.22 26.6 79.9 27 6.4 43.6 0 0
13:58 1025 30.27 854 25.22 26.5 79.8 27 6 42.9 0 0
13:59 1025 30.27 854 25.22 26.4 79.6 29 7.5 45.4 0 0
14:00 1025 30.27 854 25.22 26.6 79.9 27 6.3 43.4 0 0
14:01 1025 30.27 854 25.22 26.9 80.5 27 6.8 44.3 0 0
14:02 1025 30.27 854 25.22 27.2 80.9 27 6.9 44.4 0 0
14:03 1025 30.27 854 25.22 27.2 81 27 6.8 44.3 0 0
14:04 1025 30.27 854 25.22 27.2 81 28 7.4 45.4 0 0
14:05 1025 30.27 854 25.22 27.3 81.1 26 6.2 43.1 0 0
14:06 1025 30.27 854 25.22 27.2 80.9 26 6.5 43.7 0 0
14:07 1025 30.27 854 25.22 27 80.6 26 6.3 43.4 0 0
14:08 1025 30.27 854 25.22 26.9 80.4 26 6.3 43.4 0 0
14:09 1025 30.27 854 25.22 27 80.6 27 6.6 43.9 0 0
14:10 1025 30.27 854 25.22 27.2 81 28 7.4 45.3 0 0
14:11 1025 30.27 854 25.22 27.6 81.6 29 8.2 46.7 0 0
14:12 1025 30.27 854 25.22 27.8 82.1 27 7.4 45.2 0 0
14:13 1025 30.27 854 25.22 28 82.3 26 7 44.7 0 0
14:14 1025 30.27 854 25.22 28.1 82.5 28 7.9 46.3 0 0
14:15 1025 30.27 854 25.22 28.1 82.6 27 7.9 46.2 0 0
14:16 1025 30.27 854 25.22 27.8 82 26 7.1 44.7 0 0
14:17 1025 30.27 854 25.22 27.6 81.7 27 7.2 44.9 0 0
14:18 1025 30.27 854 25.22 27.6 81.6 28 7.5 45.5 0 0
14:19 1025 30.27 854 25.22 27.5 81.6 29 8.2 46.7 0 0
14:20 1025 30.27 854 25.22 27.7 81.8 26 6.9 44.4 0 0
14:21 1025 30.27 854 25.22 27.7 81.8 26 7 44.6 0 0
14:22 1025 30.27 854 25.22 27.7 81.8 26 6.8 44.3 0 0
14:23 1025 30.27 854 25.22 27.6 81.7 25 6.3 43.3 0 0
14:24 1025 30.27 854 25.22 27.5 81.5 26 6.6 43.9 0 0
14:25 1025 30.27 854 25.22 27.4 81.3 25 6.1 43 0 0
14:26 1025 30.27 854 25.22 27.2 81 27 7 44.6 0 0
14:27 1025 30.27 854 25.22 27.1 80.8 26 6.3 43.4 0 0
14:28 1025 30.27 854 25.22 27.1 80.8 27 6.8 44.2 0 0
14:29 1025 30.27 854 25.22 27.1 80.9 27 6.8 44.3 0 0
14:30 1025 30.27 854 25.22 27.2 81 28 7.5 45.5 0 0
14:31 1025 30.27 854 25.22 27.3 81.2 26 6.6 43.9 0 0
14:32 1025 30.27 854 25.22 27.3 81.1 27 6.7 44.1 0 0
14:33 1025 30.27 854 25.22 27.4 81.2 26 6.6 43.8 0 0
14:34 1025 30.27 854 25.22 27.4 81.3 26 6.6 43.8 0 0
14:35 1025 30.27 854 25.22 27.5 81.5 27 7.2 45 0 0
14:36 1025 30.27 854 25.22 27.6 81.6 26 6.8 44.2 0 0
14:37 1025 30.27 854 25.22 27.9 82.2 27 7.3 45.2 0 0
14:38 1025 30.27 854 25.22 28.2 82.7 27 7.7 45.9 0 0
14:39 1025 30.27 854 25.22 28.2 82.8 26 7.2 44.9 0 0
14:40 1025 30.27 854 25.22 28.1 82.5 26 7 44.5 0 0
14:41 1025 30.27 854 25.22 27.9 82.2 26 7.1 44.9 0 0
14:42 1025 30.27 854 25.22 27.7 81.9 28 7.6 45.7 0 0
14:43 1025 30.27 854 25.22 27.5 81.5 27 7.2 44.9 0 0
14:44 1025 30.27 854 25.22 27.5 81.6 28 7.8 46 0 0
14:45 1025 30.27 854 25.22 27.6 81.6 27 7.2 44.9 0 0
14:46 1025 30.27 854 25.22 27.6 81.7 26 6.7 44.1 0 0
14:47 1025 30.27 854 25.22 27.7 81.8 26 6.8 44.2 0 0
14:48 1025 30.27 854 25.22 27.8 82 25 6.4 43.6 0 0
14:49 1024 30.24 854 25.22 27.7 81.8 26 6.6 43.9 0 0
14:50 1024 30.24 854 25.22 27.5 81.4 26 6.7 44.1 0 0
14:51 1024 30.24 854 25.22 27.3 81.1 24 5.4 41.7 0 0
14:52 1024 30.24 854 25.22 27.4 81.3 25 5.7 42.2 0 0
14:53 1024 30.24 854 25.22 27.7 81.8 27 7.1 44.7 0 0
14:54 1024 30.24 854 25.22 28 82.4 26 7.1 44.7 0 0
14:55 1024 30.24 854 25.22 28.1 82.6 25 6.4 43.4 0 0
14:56 1024 30.24 854 25.22 28.1 82.6 24 6 42.8 0 0
14:57 1024 30.24 854 25.22 28.1 82.6 24 6.1 42.9 0 0
14:58 1024 30.24 854 25.22 28.1 82.7 22 4.8 40.6 0 0
14:59 1024 30.24 854 25.22 28.1 82.5 25 6.4 43.5 0 0
15:00 1024 30.24 854 25.22 28.2 82.8 21 4.2 39.5 0 0
15:01 1024 30.24 854 25.22 28.4 83 23 5.3 41.5 0 0
15:02 1024 30.24 854 25.22 28.2 82.8 23 5.4 41.8 0 0
15:03 1024 30.24 854 25.22 28 82.4 22 4.5 40 0 0
15:04 1024 30.24 854 25.22 27.9 82.1 20 3.4 38.2 0 0
15:05 1024 30.24 854 25.22 28 82.5 22 4.5 40.1 0 0
15:06 1024 30.24 854 25.22 28.1 82.7 22 4.9 40.9 0 0
15:07 1024 30.24 854 25.22 28.3 83 22 5 41 0 0
15:08 1024 30.24 854 25.22 28.5 83.2 21 4.5 40.2 0 0
15:09 1024 30.24 854 25.22 28.4 83.1 20 3.6 38.5 0 0
15:10 1024 30.24 854 25.22 28.5 83.3 20 3.6 38.4 0 0
15:11 1024 30.24 854 25.22 28.6 83.5 20 3.7 38.7 0 0
15:12 1024 30.24 854 25.22 28.6 83.4 23 5.8 42.5 0 0
15:13 1024 30.24 854 25.22 28.6 83.4 23 6 42.8 0 0
15:14 1024 30.24 854 25.22 28.4 83.1 23 5.4 41.6 0 0
15:15 1024 30.24 854 25.22 28.2 82.8 22 4.9 40.8 0 0
15:16 1024 30.24 854 25.22 28 82.5 24 5.9 42.7 0 0
15:17 1024 30.24 854 25.22 28 82.4 23 5.4 41.7 0 0
15:18 1024 30.24 854 25.22 28 82.5 24 6.1 43 0 0
15:19 1024 30.24 854 25.22 28.1 82.7 24 5.7 42.3 0 0
15:20 1024 30.24 854 25.22 28.1 82.6 23 5.1 41.3 0 0
15:21 1024 30.24 854 25.22 28.2 82.8 24 6.3 43.3 0 0
15:22 1024 30.24 854 25.22 28.4 83 23 5.8 42.4 0 0
15:23 1024 30.24 854 25.22 28.3 83 22 5.1 41.2 0 0
15:24 1024 30.24 854 25.22 28.3 82.9 25 6.7 44.1 0 0
15:25 1024 30.24 854 25.22 28.4 83.1 24 5.9 42.7 0 0
15:26 1024 30.24 854 25.22 28.4 83.1 23 5.7 42.3 0 0
15:27 1024 30.24 854 25.22 28.1 82.5 23 5.1 41.2 0 0
15:28 1024 30.24 854 25.22 27.7 81.9 23 4.7 40.5 0 0
15:29 1024 30.24 854 25.22 27.6 81.7 23 4.7 40.5 0 0
15:30 1024 30.24 854 25.22 27.5 81.4 23 4.7 40.5 0 0
15:31 1024 30.24 854 25.22 27.2 80.9 24 4.9 40.9 0 0
15:32 1024 30.24 854 25.22 27.1 80.8 25 6 42.7 0 0
15:33 1024 30.24 854 25.22 27.1 80.8 27 6.9 44.3 0 0
15:34 1024 30.24 854 25.22 27.1 80.8 26 6.3 43.3 0 0
15:35 1024 30.24 854 25.22 27.1 80.8 27 6.7 44.1 0 0
15:36 1024 30.24 854 25.22 27.1 80.7 26 6.1 43 0 0
15:37 1024 30.24 854 25.22 27.2 80.9 24 5 41.1 0 0
15:38 1024 30.24 854 25.22 27.3 81.1 25 5.7 42.3 0 0
15:39 1024 30.24 854 25.22 27.5 81.6 23 5.1 41.2 0 0
15:40 1024 30.24 854 25.22 27.7 81.9 24 5.7 42.2 0 0
15:41 1024 30.24 854 25.22 27.7 81.8 23 5 41 0 0
15:42 1024 30.24 854 25.22 27.6 81.6 23 4.8 40.6 0 0
15:43 1024 30.24 854 25.22 27.4 81.4 23 5.1 41.1 0 0
15:44 1024 30.24 854 25.22 27.4 81.3 25 6 42.8 0 0
15:45 1024 30.24 854 25.22 27.4 81.3 23 4.9 40.9 0 0
15:46 1024 30.24 854 25.22 27.2 81 23 4.6 40.2 0 0
15:47 1024 30.24 854 25.22 27.1 80.7 25 5.9 42.6 0 0
15:48 1024 30.24 854 25.22 27 80.7 23 4.5 40.1 0 0
15:49 1024 30.24 854 25.22 27.1 80.7 24 5.1 41.3 0 0
15:50 1024 30.24 854 25.22 27.1 80.9 25 5.5 41.8 0 0
15:51 1024 30.24 854 25.22 27.3 81.2 24 5.5 41.9 0 0
15:52 1024 30.24 854 25.22 27.5 81.4 25 6.1 43 0 0
15:53 1024 30.24 853 25.19 27.5 81.5 27 6.9 44.4 0 0
15:54 1024 30.24 854 25.22 27.6 81.6 28 7.8 46.1 0 0
15:55 1024 30.24 854 25.22 27.8 82 23 5.2 41.4 0 0
15:56 1024 30.24 854 25.22 27.8 82 24 5.8 42.5 0 0
15:57 1024 30.24 853 25.19 27.8 82 25 6.2 43.1 0 0
15:58 1024 30.24 854 25.22 27.8 82 24 5.4 41.8 0 0
15:59 1024 30.24 854 25.22 27.9 82.2 25 6.1 43 0 0
16:00 1024 30.24 853 25.19 28.1 82.6 23 5.3 41.5 0 0
16:01 1024 30.24 853 25.19 28.3 83 22 4.7 40.5 0 0
16:02 1024 30.24 853 25.19 28.4 83.1 23 5.9 42.6 0 0
16:03 1024 30.24 853 25.19 28.6 83.4 22 4.9 40.9 0 0
16:04 1024 30.24 854 25.22 28.6 83.4 22 5 41 0 0
16:05 1024 30.24 853 25.19 28.6 83.4 21 4.5 40.1 0 0
16:06 1024 30.24 854 25.22 28.6 83.5 21 4.4 40 0 0
16:07 1024 30.24 853 25.19 28.7 83.6 22 4.9 40.9 0 0
16:08 1024 30.24 853 25.19 28.8 83.9 22 5.4 41.7 0 0
16:09 1024 30.24 853 25.19 29 84.2 21 4.9 40.9 0 0
16:10 1024 30.24 853 25.19 29.1 84.4 22 5.6 42.1 0 0
16:11 1024 30.24 853 25.19 29 84.3 21 5.2 41.3 0 0
16:12 1024 30.24 853 25.19 28.9 84.1 23 6 42.8 0 0
16:13 1024 30.24 853 25.19 28.8 83.8 25 7.1 44.7 0 0
16:14 1024 30.24 853 25.19 28.6 83.5 24 6.1 43 0 0
16:15 1024 30.24 853 25.19 28.5 83.3 24 6.5 43.7 0 0
16:16 1024 30.24 853 25.19 28.5 83.2 25 6.7 44.1 0 0
16:17 1024 30.24 853 25.19 28.6 83.4 24 6.2 43.1 0 0
16:18 1024 30.24 853 25.19 28.5 83.2 24 6.1 43 0 0
16:19 1024 30.24 853 25.19 28.4 83.1 22 4.9 40.9 0 0
16:20 1024 30.24 853 25.19 28.4 83.2 22 5 41.1 0 0
16:21 1024 30.24 853 25.19 28.3 82.9 20 3.7 38.6 0 0
16:22 1024 30.24 853 25.19 28.2 82.7 22 4.9 40.8 0 0
16:23 1024 30.24 853 25.19 28.2 82.8 24 5.9 42.7 0 0
16:24 1024 30.24 853 25.19 28.4 83.1 23 5.5 41.8 0 0
16:25 1024 30.24 853 25.19 28.5 83.2 22 4.9 40.8 0 0
16:26 1024 30.24 853 25.19 28.4 83.1 25 6.8 44.2 0 0
16:27 1024 30.24 853 25.19 28.4 83.2 21 4.7 40.4 0 0
16:28 1024 30.24 853 25.19 28.5 83.3 21 4.3 39.8 0 0
16:29 1024 30.24 853 25.19 28.5 83.3 22 4.9 40.9 0 0
16:30 1024 30.24 853 25.19 28.4 83.2 22 5.2 41.3 0 0
16:31 1024 30.24 853 25.19 28.5 83.3 22 5.3 41.6 0 0
16:32 1024 30.24 853 25.19 28.5 83.4 23 5.6 42 0 0
16:33 1024 30.24 853 25.19 28.4 83.1 24 6.1 43.1 0 0
16:34 1024 30.24 853 25.19 28.2 82.7 21 4 39.3 0 0
16:35 1024 30.24 853 25.19 28 82.4 21 4 39.1 0 0
16:36 1024 30.24 853 25.19 28.1 82.5 24 5.7 42.3 0 0
16:37 1024 30.24 853 25.19 28.3 82.9 21 4.3 39.7 0 0
16:38 1024 30.24 853 25.19 28.3 82.9 21 4.2 39.6 0 0
16:39 1024 30.24 853 25.19 28.3 82.9 24 6.2 43.2 0 0
16:40 1024 30.24 853 25.19 28.3 83 22 5.2 41.3 0 0
16:41 1024 30.24 853 25.19 28.4 83.2 22 5 41 0 0
16:42 1024 30.24 853 25.19 28.5 83.2 25 6.6 43.8 0 0
16:43 1024 30.24 853 25.19 28.5 83.3 21 4.7 40.4 0 0
16:44 1024 30.24 853 25.19 28.4 83.1 21 4.6 40.3 0 0
16:45 1024 30.24 853 25.19 28.5 83.3 22 4.9 40.8 0 0
16:46 1024 30.24 853 25.19 28.7 83.6 21 4.7 40.5 0 0
16:47 1024 30.24 853 25.19 28.8 83.8 21 4.8 40.6 0 0
16:48 1024 30.24 853 25.19 28.8 83.8 20 4.2 39.5 0 0
16:49 1024 30.24 853 25.19 28.9 84.1 17 1.8 35.2 0 0
16:50 1024 30.24 853 25.19 28.9 83.9 17 1.5 34.7 0 0
16:51 1024 30.24 853 25.19 28.8 83.9 18 2.6 36.6 0 0
16:52 1024 30.24 853 25.19 28.8 83.9 19 2.9 37.3 0 0
16:53 1024 30.24 853 25.19 28.8 83.9 17 1.6 34.9 0 0
16:54 1024 30.24 853 25.19 28.6 83.4 18 1.9 35.4 0 0
16:55 1024 30.24 853 25.19 28.5 83.3 18 2.6 36.7 0 0
16:56 1024 30.24 853 25.19 28.5 83.2 19 2.9 37.2 0 0
16:57 1024 30.24 853 25.19 28.4 83.2 21 4.3 39.7 0 0
16:58 1024 30.24 853 25.19 28.4 83.1 20 3.3 38 0 0
16:59 1024 30.24 853 25.19 28.2 82.7 22 5 41.1 0 0
17:00 1024 30.24 853 25.19 28.1 82.5 21 4.3 39.8 0 0
17:01 1024 30.24 853 25.19 28 82.5 21 4.2 39.5 0 0
17:02 1024 30.24 853 25.19 27.9 82.2 22 4.4 39.8 0 0
17:03 1024 30.24 853 25.19 27.8 82 22 4.3 39.8 0 0
17:04 1024 30.24 853 25.19 27.6 81.7 20 2.7 36.9 0 0
17:05 1024 30.24 853 25.19 27.4 81.2 19 2.1 35.9 0 0
17:06 1024 30.24 853 25.19 27.1 80.9 20 2.6 36.7 0 0
17:07 1024 30.24 853 25.19 26.9 80.5 21 2.7 36.9 0 0
17:08 1024 30.24 853 25.19 26.8 80.2 21 2.8 37.1 0 0
17:09 1024 30.24 853 25.19 26.8 80.3 21 2.8 37 0 0
17:10 1024 30.24 853 25.19 27.1 80.7 19 1.9 35.4 0 0
17:11 1024 30.24 853 25.19 27.2 81 21 3.6 38.5 0 0
17:12 1024 30.24 853 25.19 27.5 81.5 18 1 33.9 0 0
17:13 1024 30.24 853 25.19 27.8 82.1 19 2.5 36.5 0 0
17:14 1024 30.24 853 25.19 28.1 82.6 18 1.5 34.7 0 0
17:15 1024 30.24 853 25.19 28.2 82.7 18 1.6 34.8 0 0
17:16 1024 30.24 853 25.19 28.3 82.9 19 2.6 36.7 0 0
17:17 1024 30.24 853 25.19 28.5 83.2 16 0.6 33.1 0 0
17:18 1024 30.24 853 25.19 28.5 83.3 15 0.1 32.2 0 0
17:19 1024 30.24 853 25.19 28.6 83.4 14 -0.8 30.6 0 0
17:20 1024 30.24 853 25.19 28.6 83.5 17 1.6 34.9 0 0
17:21 1024 30.24 853 25.19 28.4 83.2 16 0.1 32.2 0 0
17:22 1024 30.24 853 25.19 28.3 82.9 16 0.7 33.2 0 0
17:23 1024 30.24 853 25.19 28.2 82.8 18 2.3 36.1 0 0
17:24 1024 30.24 853 25.19 28.4 83.1 17 1.2 34.2 0 0
17:25 1024 30.24 853 25.19 28.5 83.2 18 1.9 35.5 0 0
17:26 1024 30.24 853 25.19 28.6 83.5 17 1.7 35.1 0 0
17:27 1024 30.24 853 25.19 28.6 83.5 19 2.8 37.1 0 0
17:28 1024 30.24 853 25.19 28.5 83.3 20 3.7 38.7 0 0
17:29 1024 30.24 853 25.19 28.4 83.1 19 2.5 36.5 0 0
17:30 1024 30.24 853 25.19 28.4 83.1 18 2 35.6 0 0
17:31 1024 30.24 853 25.19 28.4 83.1 16 0.3 32.5 0 0
17:32 1024 30.24 853 25.19 28.1 82.7 18 1.8 35.3 0 0
17:33 1024 30.24 853 25.19 27.8 82 17 0.5 32.9 0 0
17:34 1024 30.24 853 25.19 27.4 81.3 18 1 33.8 0 0
17:35 1024 30.24 853 25.19 27 80.7 18 0.7 33.2 0 0
17:36 1024 30.24 853 25.19 26.8 80.2 18 0.4 32.6 0 0
17:37 1024 30.24 853 25.19 26.5 79.8 19 1.3 34.3 0 0
17:38 1024 30.24 853 25.19 26.3 79.4 18 0.5 32.9 0 0
17:39 1024 30.24 853 25.19 26.3 79.3 18 0.5 33 0 0
17:40 1024 30.24 853 25.19 26.5 79.6 19 1.2 34.1 0 0
17:41 1024 30.24 853 25.19 26.6 79.9 18 0.5 32.9 0 0
17:42 1024 30.24 853 25.19 26.8 80.2 17 -0.2 31.6 0 0
17:43 1024 30.24 853 25.19 26.9 80.5 19 1.6 34.9 0 0
17:44 1024 30.24 853 25.19 27.2 80.9 19 1.6 34.9 0 0
17:45 1024 30.24 853 25.19 27.3 81.2 15 -1 30.1 0 0
17:46 1024 30.24 853 25.19 27.3 81.1 16 -0.1 31.9 0 0
17:47 1024 30.24 853 25.19 27.1 80.7 15 -1.7 28.9 0 0
17:48 1024 30.24 853 25.19 27 80.6 17 0.5 32.9 0 0
17:49 1024 30.24 853 25.19 26.8 80.2 16 -0.5 31.2 0 0
17:50 1024 30.24 853 25.19 26.6 80 18 0.7 33.2 0 0
17:51 1024 30.24 853 25.19 26.5 79.7 15 -1.9 28.5 0 0
17:52 1024 30.24 853 25.19 26.4 79.5 17 -0.5 31.1 0 0
17:53 1024 30.24 853 25.19 26.3 79.3 16 -1.6 29.2 0 0
17:54 1024 30.24 853 25.19 26.2 79.1 16 -1.4 29.6 0 0
17:55 1024 30.24 853 25.19 26.2 79.1 17 -0.2 31.6 0 0
17:56 1024 30.24 853 25.19 26.1 78.9 15 -2.8 27 0 0
17:57 1024 30.24 853 25.19 26.1 78.9 17 -0.8 30.5 0 0
17:58 1024 30.24 853 25.19 26 78.7 15 -2.7 27.1 0 0
17:59 1024 30.24 853 25.19 25.9 78.6 15 -2.7 27.2 0 0
18:00 1024 30.24 853 25.19 25.9 78.7 17 -0.7 30.8 0 0
18:01 1024 30.24 853 25.19 25.9 78.6 16 -1.6 29 0 0
18:02 1024 30.24 853 25.19 25.9 78.6 17 -0.8 30.6 0 0
18:03 1024 30.24 853 25.19 25.8 78.5 16 -1.7 28.9 0 0
18:04 1024 30.24 853 25.19 25.8 78.5 17 -1 30.2 0 0
18:05 1024 30.24 853 25.19 25.9 78.5 17 -0.8 30.5 0 0
18:06 1024 30.24 853 25.19 25.8 78.5 19 0.7 33.3 0 0
18:07 1024 30.24 853 25.19 25.9 78.6 14 -3 26.6 0 0
18:08 1024 30.24 853 25.19 26 78.8 13 -4.2 24.4 0 0
18:09 1024 30.24 853 25.19 26.1 79 14 -3.7 25.4 0 0
18:10 1024 30.24 853 25.19 26.3 79.3 14 -2.9 26.7 0 0
18:11 1024 30.24 853 25.19 26.4 79.5 13 -3.6 25.5 0 0
18:12 1024 30.24 853 25.19 26.5 79.7 13 -4.3 24.3 0 0
18:13 1024 30.24 853 25.19 26.6 79.8 13 -3.6 25.5 0 0
18:14 1024 30.24 853 25.19 26.6 80 15 -2.2 28.1 0 0
18:15 1024 30.24 853 25.19 26.7 80 14 -2.9 26.7 0 0
18:16 1024 30.24 853 25.19 26.6 79.9 14 -2.7 27.2 0 0
18:17 1024 30.24 853 25.19 26.5 79.7 13 -3.8 25.1 0 0
18:18 1024 30.24 853 25.19 26.4 79.6 14 -3.4 25.9 0 0
18:19 1024 30.24 853 25.19 26.4 79.5 14 -3.2 26.2 0 0
18:20 1024 30.24 853 25.19 26.4 79.5 12 -4.6 23.7 0 0
18:21 1024 30.24 853 25.19 26.4 79.5 13 -4.5 24 0 0
18:22 1024 30.24 853 25.19 26.6 79.9 14 -3.2 26.2 0 0
18:23 1024 30.24 853 25.19 26.9 80.4 13 -3.1 26.5 0 0
18:24 1024 30.24 853 25.19 27.2 81 14 -2.7 27.2 0 0
18:25 1024 30.24 853 25.19 27.5 81.5 13 -3.3 26.1 0 0
18:26 1024 30.24 853 25.19 27.6 81.6 13 -3.3 26.1 0 0
18:27 1024 30.24 853 25.19 27.6 81.7 13 -2.9 26.8 0 0
18:28 1024 30.24 853 25.19 27.6 81.6 13 -2.6 27.3 0 0
18:29 1024 30.24 853 25.19 27.5 81.6 13 -2.6 27.3 0 0
18:30 1024 30.24 853 25.19 27.7 81.8 13 -3.4 25.9 0 0
18:31 1024 30.24 853 25.19 27.7 81.9 12 -3.6 25.5 0 0
18:32 1024 30.24 853 25.19 27.9 82.1 11 -4.9 23.1 0 0
18:33 1024 30.24 853 25.19 28 82.3 11 -4.9 23.2 0 0
18:34 1024 30.24 854 25.22 28 82.4 12 -4 24.8 0 0
18:35 1024 30.24 853 25.19 28 82.4 12 -3.9 25 0 0
18:36 1024 30.24 854 25.22 28.1 82.5 10 -6 21.2 0 0
18:37 1024 30.24 854 25.22 28.1 82.5 12 -3.5 25.8 0 0
18:38 1024 30.24 854 25.22 28.1 82.6 11 -5 22.9 0 0
18:39 1024 30.24 854 25.22 28.1 82.6 9 -7.5 18.5 0 0
18:40 1024 30.24 854 25.22 28.1 82.5 10 -5.7 21.7 0 0
18:41 1024 30.24 854 25.22 28.2 82.7 11 -4.8 23.3 0 0
18:42 1024 30.24 854 25.22 28.2 82.7 10 -6 21.1 0 0
18:43 1024 30.24 854 25.22 28.2 82.8 12 -4.1 24.6 0 0
18:44 1024 30.24 854 25.22 28.2 82.8 10 -5.4 22.3 0 0
18:45 1024 30.24 854 25.22 28.1 82.7 10 -6.1 21.1 0 0
18:46 1024 30.24 853 25.19 28.1 82.5 11 -4.7 23.5 0 0
18:47 1024 30.24 853 25.19 28.1 82.6 10 -5.5 22 0 0
18:48 1024 30.24 853 25.19 28.1 82.6 10 -6.3 20.6 0 0
18:49 1024 30.24 853 25.19 28.1 82.7 10 -5.4 22.2 0 0
18:50 1024 30.24 853 25.19 28.1 82.6 10 -5.5 22.1 0 0
18:51 1024 30.24 853 25.19 28.2 82.8 11 -5.2 22.7 0 0
18:52 1024 30.24 853 25.19 28.2 82.7 11 -4.7 23.5 0 0
18:53 1024 30.24 853 25.19 28.1 82.6 11 -4.8 23.3 0 0
18:54 1024 30.24 853 25.19 28.1 82.5 11 -4.8 23.4 0 0
18:55 1024 30.24 853 25.19 28.1 82.5 11 -4.8 23.4 0 0
18:56 1024 30.24 853 25.19 28.2 82.7 12 -3.6 25.6 0 0
18:57 1024 30.24 853 25.19 28.3 82.9 11 -4.8 23.4 0 0
18:58 1024 30.24 853 25.19 28.3 82.9 12 -3.1 26.4 0 0
18:59 1024 30.24 853 25.19 28.4 83.1 12 -3.1 26.4 0 0
19:00 1024 30.24 853 25.19 28.3 83 13 -2.1 28.2 0 0
19:01 1024 30.24 853 25.19 28.3 82.9 12 -3.3 26.1 0 0
19:02 1024 30.24 853 25.19 28.3 82.9 12 -3.5 25.7 0 0
19:03 1024 30.24 853 25.19 28.2 82.8 12 -3.5 25.7 0 0
19:04 1024 30.24 853 25.19 28.2 82.7 13 -2.9 26.8 0 0
19:05 1024 30.24 853 25.19 28.1 82.5 12 -3.3 26 0 0
19:06 1024 30.24 853 25.19 28 82.4 13 -2.6 27.3 0 0
19:07 1024 30.24 854 25.22 27.9 82.3 13 -2.9 26.8 0 0
19:08 1024 30.24 854 25.22 27.9 82.3 12 -3.3 26 0 0
19:09 1024 30.24 854 25.22 28 82.3 12 -3.3 26 0 0
19:10 1024 30.24 853 25.19 28 82.5 12 -3.2 26.3 0 0
19:11 1024 30.24 854 25.22 28 82.5 14 -1.7 29 0 0
19:12 1024 30.24 854 25.22 28 82.4 14 -2 28.3 0 0
19:13 1024 30.24 854 25.22 28 82.3 14 -1.7 28.9 0 0
19:14 1024 30.24 854 25.22 27.9 82.1 13 -2.6 27.3 0 0
19:15 1024 30.24 854 25.22 27.8 82 14 -2.2 28 0 0
19:16 1024 30.24 854 25.22 27.7 81.9 14 -1.8 28.8 0 0
19:17 1024 30.24 853 25.19 27.7 81.8 15 -0.7 30.7 0 0
19:18 1024 30.24 853 25.19 27.7 81.8 16 -0 31.9 0 0
19:19 1024 30.24 854 25.22 27.7 81.8 14 -2.4 27.7 0 0
19:20 1024 30.24 854 25.22 27.7 81.8 14 -2.3 27.8 0 0
19:21 1024 30.24 854 25.22 27.7 81.8 13 -2.6 27.3 0 0
19:22 1024 30.24 853 25.19 27.7 81.8 13 -2.7 27.1 0 0
19:23 1024 30.24 853 25.19 27.7 81.9 14 -2 28.4 0 0
19:24 1024 30.24 853 25.19 27.8 82 13 -2.5 27.5 0 0
19:25 1024 30.24 853 25.19 27.8 82.1 13 -2.6 27.4 0 0
19:26 1024 30.24 853 25.19 27.9 82.2 13 -2.8 27 0 0
19:27 1024 30.24 853 25.19 28 82.5 14 -1.3 29.7 0 0
19:28 1024 30.24 853 25.19 28.2 82.7 14 -2 28.5 0 0
19:29 1024 30.24 853 25.19 28.3 83 15 -0.1 31.9 0 0
19:30 1024 30.24 853 25.19 28.2 82.8 13 -2.3 27.9 0 0
19:31 1024 30.24 853 25.19 28.2 82.8 13 -2.2 28.1 0 0
19:32 1024 30.24 853 25.19 28.2 82.7 13 -2.1 28.3 0 0
19:33 1024 30.24 853 25.19 28.3 82.9 13 -2.1 28.2 0 0
19:34 1024 30.24 853 25.19 28.4 83.2 14 -1.1 29.9 0 0
19:35 1024 30.24 853 25.19 28.5 83.2 18 2.2 35.9 0 0
19:36 1024 30.24 853 25.19 28.5 83.3 13 -1.8 28.7 0 0
19:37 1024 30.24 853 25.19 28.6 83.5 14 -1.3 29.7 0 0
19:38 1024 30.24 853 25.19 28.8 83.8 16 0.9 33.6 0 0
19:39 1024 30.24 853 25.19 28.8 83.8 14 -0.8 30.6 0 0
19:40 1024 30.24 853 25.19 28.7 83.7 14 -0.8 30.6 0 0
19:41 1024 30.24 853 25.19 28.7 83.7 14 -0.7 30.7 0 0
19:42 1024 30.24 853 25.19 28.7 83.7 15 -0.4 31.2 0 0
19:43 1024 30.24 853 25.19 28.7 83.7 16 0.3 32.6 0 0
19:44 1024 30.24 853 25.19 28.6 83.4 17 1.5 34.7 0 0
19:45 1024 30.24 853 25.19 28.5 83.3 16 0.9 33.5 0 0
19:46 1024 30.24 853 25.19 28.4 83.2 15 -0.8 30.6 0 0
19:47 1024 30.24 853 25.19 28.5 83.3 16 0.4 32.8 0 0
19:48 1024 30.24 853 25.19 28.6 83.4 16 1 33.8 0 0
19:49 1024 30.24 854 25.22 28.7 83.7 16 0.5 33 0 0
19:50 1024 30.24 854 25.22 28.9 84 16 0.6 33.1 0 0
19:51 1024 30.24 853 25.19 29 84.2 18 2.3 36.1 0 0
19:52 1024 30.24 854 25.22 29 84.2 20 3.8 38.8 0 0
19:53 1024 30.24 854 25.22 28.8 83.8 20 3.7 38.6 0 0
19:54 1024 30.24 854 25.22 28.4 83.2 16 0.9 33.6 0 0
19:55 1024 30.24 854 25.22 28.1 82.6 17 0.8 33.5 0 0
19:56 1024 30.24 854 25.22 27.9 82.3 20 3.5 38.3 0 0
19:57 1024 30.24 854 25.22 27.7 81.9 21 3.5 38.3 0 0
19:58 1024 30.24 854 25.22 27.6 81.6 18 1.5 34.7 0 0
19:59 1024 30.24 854 25.22 27.4 81.4 26 6.4 43.5 0 0
20:00 1024 30.24 854 25.22 27.2 80.9 27 6.7 44 0 0
20:01 1024 30.24 854 25.22 26.9 80.5 27 6.4 43.5 0 0
20:02 1024 30.24 854 25.22 26.7 80 31 8.3 46.9 0 0
20:03 1024 30.24 854 25.22 26.4 79.5 27 6.3 43.4 0 0
20:04 1024 30.24 854 25.22 26.2 79.2 24 4 39.3 0 0
20:05 1024 30.24 854 25.22 26.1 79 29 7 44.6 0 0
20:06 1024 30.24 854 25.22 26 78.7 30 7.1 44.7 0 0
20:07 1024 30.24 854 25.22 25.7 78.2 33 8.7 47.6 0 0
20:08 1024 30.24 854 25.22 25.4 77.7 29 6.3 43.4 0 0
20:09 1024 30.24 854 25.22 25.2 77.4 29 6.1 43 0 0
20:10 1024 30.24 854 25.22 25 77 29 5.9 42.7 0 0
20:11 1024 30.24 854 25.22 24.8 76.7 30 6.3 43.3 0 0
20:12 1024 30.24 854 25.22 24.7 76.5 29 5.8 42.5 0 0
20:13 1024 30.24 854 25.22 24.6 76.3 30 6 42.8 0 0
20:14 1024 30.24 854 25.22 24.5 76.1 31 6.6 43.9 0 0
20:15 1025 30.27 854 25.22 24.3 75.7 31 6.4 43.6 0 0
20:16 1024 30.24 854 25.22 24.1 75.3 32 6.7 44 0 0
20:17 1024 30.24 854 25.22 23.8 74.9 33 6.8 44.2 0 0
20:18 1024 30.24 854 25.22 23.7 74.6 33 6.7 44.1 0 0
20:19 1024 30.24 854 25.22 23.5 74.2 35 7.2 45 0 0
20:20 1024 30.24 854 25.22 23.2 73.7 35 7.2 45 0 0
20:21 1024 30.24 854 25.22 22.9 73.3 34 6.5 43.7 0 0
20:22 1024 30.24 854 25.22 22.8 73.1 34 6.4 43.5 0 0
20:23 1024 30.24 854 25.22 22.7 72.8 36 6.9 44.4 0 0
20:24 1024 30.24 854 25.22 22.4 72.4 36 6.7 44 0 0
20:25 1024 30.24 854 25.22 22.3 72.1 36 6.9 44.4 0 0
20:26 1024 30.24 854 25.22 22.2 71.9 36 6.4 43.6 0 0
20:27 1024 30.24 854 25.22 22.1 71.7 36 6.6 43.9 0 0
20:28 1024 30.24 854 25.22 21.9 71.4 37 6.6 43.9 0 0
20:29 1024 30.24 854 25.22 21.7 71.1 35 6 42.7 0 0
20:30 1024 30.24 854 25.22 21.7 71.1 36 6 42.8 0 0
20:31 1024 30.24 854 25.22 21.8 71.2 34 5.4 41.6 0 0
20:32 1024 30.24 854 25.22 21.9 71.4 34 5.7 42.3 0 0
20:33 1025 30.27 854 25.22 22 71.6 34 5.7 42.3 0 0
20:34 1025 30.27 854 25.22 22.1 71.7 34 5.5 41.9 0 0
20:35 1025 30.27 854 25.22 22.1 71.8 35 5.9 42.7 0 0
20:36 1025 30.27 854 25.22 22 71.6 34 5.6 42.2 0 0
20:37 1025 30.27 854 25.22 22 71.5 34 5.4 41.8 0 0
20:38 1025 30.27 854 25.22 22 71.5 34 5.5 42 0 0
20:39 1025 30.27 854 25.22 22 71.6 33 5.1 41.1 0 0
20:40 1025 30.27 854 25.22 22.1 71.7 32 4.8 40.7 0 0
20:41 1025 30.27 854 25.22 22.3 72.1 32 4.9 40.8 0 0
20:42 1025 30.27 854 25.22 22.4 72.3 31 4.7 40.5 0 0
20:43 1025 30.27 854 25.22 22.5 72.5 32 5.1 41.2 0 0
20:44 1025 30.27 854 25.22 22.5 72.5 32 5 41 0 0
20:45 1025 30.27 854 25.22 22.5 72.5 32 5 41 0 0
20:46 1025 30.27 854 25.22 22.4 72.4 31 4.5 40.2 0 0
20:47 1025 30.27 854 25.22 22.5 72.5 30 4.3 39.7 0 0
20:48 1025 30.27 854 25.22 22.6 72.7 29 4 39.2 0 0
20:49 1025 30.27 854 25.22 22.8 73.1 29 3.9 39.1 0 0
20:50 1025 30.27 854 25.22 23 73.5 28 3.7 38.6 0 0
20:51 1025 30.27 854 25.22 23.2 73.8 28 4.1 39.3 0 0
20:52 1025 30.27 854 25.22 23.3 73.9 29 4.4 39.9 0 0
20:53 1025 30.27 854 25.22 23.2 73.8 30 4.8 40.6 0 0
20:54 1025 30.27 854 25.22 23 73.3 30 4.8 40.7 0 0
20:55 1025 30.27 854 25.22 22.8 73.1 31 4.9 40.9 0 0
20:56 1025 30.27 854 25.22 22.7 72.8 32 5.3 41.5 0 0
20:57 1025 30.27 854 25.22 22.2 71.9 33 5.5 41.8 0 0
20:58 1025 30.27 854 25.22 21.7 71 35 5.6 42.1 0 0
20:59 1025 30.27 854 25.22 21.2 70.2 36 5.7 42.3 0 0
21:00 1025 30.27 854 25.22 20.9 69.7 36 5.5 41.9 0 0
21:01 1025 30.27 854 25.22 20.9 69.6 33 4.3 39.8 0 0
21:02 1025 30.27 854 25.22 21.4 70.5 32 4.4 39.8 0 0
21:03 1025 30.27 854 25.22 21.7 71 33 5 41.1 0 0
21:04 1025 30.27 854 25.22 21.5 70.7 35 5.4 41.8 0 0
21:05 1025 30.27 854 25.22 21.3 70.4 35 5.5 41.8 0 0
21:06 1025 30.27 854 25.22 21.2 70.2 36 5.7 42.2 0 0
21:07 1025 30.27 854 25.22 21 69.8 32 3.9 39.1 0 0
21:08 1025 30.27 854 25.22 21.5 70.8 31 3.9 39 0 0
21:09 1025 30.27 854 25.22 22.1 71.9 30 3.8 38.9 0 0
21:10 1025 30.27 854 25.22 22.6 72.6 30 4.1 39.4 0 0
21:11 1025 30.27 854 25.22 22.7 72.9 30 4.4 40 0 0
21:12 1025 30.27 854 25.22 22.8 73 30 4.4 39.9 0 0
21:13 1025 30.27 854 25.22 22.6 72.7 32 5.4 41.7 0 0
21:14 1025 30.27 854 25.22 22 71.6 31 4.5 40 0 0
21:15 1025 30.27 854 25.22 21.8 71.3 35 6.1 42.9 0 0
21:16 1025 30.27 854 25.22 21.1 69.9 39 6.6 43.9 0 0
21:17 1025 30.27 854 25.22 20.3 68.5 39 6.2 43.2 0 0
21:18 1025 30.27 854 25.22 20.1 68.2 40 6.1 43 0 0
21:19 1025 30.27 854 25.22 20 67.9 43 7.1 44.7 0 0
21:20 1025 30.27 854 25.22 19.2 66.6 47 7.7 45.8 0 0
21:21 1025 30.27 854 25.22 18.4 65 50 7.8 46.1 0 0
21:22 1025 30.27 854 25.22 17.5 63.6 52 7.7 45.9 0 0
21:23 1025 30.27 854 25.22 17 62.5 53 7.4 45.4 0 0
21:24 1025 30.27 854 25.22 16.7 62 53 7.1 44.8 0 0
21:25 1025 30.27 854 25.22 16.7 62 50 6.4 43.6 0 0
21:26 1025 30.27 854 25.22 17 62.6 50 6.5 43.7 0 0
21:27 1025 30.27 854 25.22 17.2 63 48 6.2 43.2 0 0
21:28 1025 30.27 854 25.22 17.5 63.4 48 6.4 43.5 0 0
21:29 1025 30.27 854 25.22 17.6 63.7 46 5.9 42.7 0 0
21:30 1025 30.27 854 25.22 18 64.4 46 6.4 43.6 0 0
21:31 1025 30.27 854 25.22 17.9 64.3 47 6.6 43.8 0 0
21:32 1025 30.27 854 25.22 17.8 64 49 6.9 44.5 0 0
21:33 1025 30.27 854 25.22 17.5 63.4 50 6.9 44.5 0 0
21:34 1025 30.27 854 25.22 17.3 63.1 50 7 44.5 0 0
21:35 1025 30.27 854 25.22 17.1 62.8 51 6.9 44.4 0 0
21:36 1025 30.27 854 25.22 17 62.6 51 6.8 44.3 0 0
21:37 1025 30.27 854 25.22 16.9 62.4 52 7 44.6 0 0
21:38 1025 30.27 854 25.22 16.7 62.1 52 7.1 44.7 0 0
21:39 1025 30.27 854 25.22 16.6 61.8 53 7.1 44.8 0 0
21:40 1025 30.27 854 25.22 16.4 61.4 53 6.8 44.3 0 0
21:41 1025 30.27 854 25.22 16.3 61.3 54 7 44.5 0 0
21:42 1025 30.27 854 25.22 16.2 61.2 53 6.8 44.3 0 0
21:43 1025 30.27 855 25.25 16.2 61.1 54 6.9 44.4 0 0
21:44 1025 30.27 854 25.22 16.1 61 54 6.8 44.3 0 0
21:45 1025 30.27 855 25.25 16.2 61.1 54 6.8 44.3 0 0
21:46 1025 30.27 855 25.25 16.3 61.3 54 6.9 44.5 0 0
21:47 1025 30.27 855 25.25 16.3 61.3 54 7 44.6 0 0
21:48 1025 30.27 855 25.25 16.2 61.2 54 6.9 44.4 0 0
21:49 1025 30.27 855 25.25 16.2 61.1 54 6.8 44.3 0 0
21:50 1025 30.27 855 25.25 16.2 61.2 54 7 44.6 0 0
21:51 1025 30.27 855 25.25 16.1 61 54 6.8 44.2 0 0
21:52 1025 30.27 855 25.25 16.1 61 53 6.7 44.1 0 0
21:53 1025 30.27 855 25.25 16.1 61 53 6.7 44.1 0 0
21:54 1025 30.27 855 25.25 16.1 61 53 6.7 44.1 0 0
21:55 1025 30.27 855 25.25 16.1 60.9 54 6.8 44.2 0 0
21:56 1025 30.27 855 25.25 15.9 60.6 55 6.9 44.4 0 0
21:57 1025 30.27 855 25.25 15.7 60.3 55 6.9 44.3 0 0
21:58 1025 30.27 855 25.25 15.6 60.1 55 6.7 44.1 0 0
21:59 1025 30.27 855 25.25 15.6 60.1 54 6.4 43.6 0 0
22:00 1025 30.27 855 25.25 15.9 60.6 51 5.8 42.4 0 0
22:01 1025 30.27 855 25.25 16.5 61.7 49 5.9 42.6 0 0
22:02 1025 30.27 855 25.25 16.9 62.4 48 5.8 42.5 0 0
22:03 1025 30.27 855 25.25 17 62.6 49 6.2 43.2 0 0
22:04 1025 30.27 855 25.25 16.9 62.5 48 6.1 43 0 0
22:05 1025 30.27 855 25.25 16.9 62.5 48 5.9 42.7 0 0
22:06 1025 30.27 855 25.25 17 62.5 48 6.1 43 0 0
22:07 1026 30.3 855 25.25 16.9 62.4 49 6.2 43.2 0 0
22:08 1026 30.3 855 25.25 16.8 62.2 49 6.2 43.1 0 0
22:09 1026 30.3 855 25.25 16.7 62 50 6.3 43.4 0 0
22:10 1026 30.3 855 25.25 16.6 61.8 50 6.2 43.1 0 0
22:11 1026 30.3 855 25.25 16.5 61.7 50 6.2 43.2 0 0
22:12 1026 30.3 855 25.25 16.4 61.6 50 6.2 43.1 0 0
22:13 1026 30.3 855 25.25 16.4 61.6 51 6.2 43.2 0 0
22:14 1026 30.3 855 25.25 16.4 61.5 51 6.2 43.2 0 0
22:15 1026 30.3 855 25.25 16.3 61.3 51 6.2 43.1 0 0
22:16 1026 30.3 855 25.25 16.2 61.1 51 6.2 43.1 0 0
22:17 1026 30.3 855 25.25 16.1 61 51 6.2 43.2 0 0
22:18 1026 30.3 855 25.25 16 60.8 52 6.2 43.2 0 0
22:19 1026 30.3 855 25.25 15.9 60.6 53 6.5 43.7 0 0
22:20 1026 30.3 855 25.25 15.7 60.3 53 6.3 43.3 0 0
22:21 1026 30.3 855 25.25 15.6 60.1 53 6.2 43.2 0 0
22:22 1026 30.3 855 25.25 15.5 60 54 6.4 43.6 0 0
22:23 1026 30.3 855 25.25 15.4 59.7 55 6.4 43.5 0 0
22:24 1026 30.3 855 25.25 15.3 59.6 54 6.3 43.3 0 0
22:25 1026 30.3 855 25.25 15.3 59.5 54 6.1 43 0 0
22:26 1026 30.3 855 25.25 15.2 59.4 55 6.3 43.3 0 0
22:27 1026 30.3 855 25.25 15.1 59.2 54 6 42.7 0 0
22:28 1026 30.3 855 25.25 15.2 59.4 54 6 42.8 0 0
22:29 1026 30.3 855 25.25 15.4 59.7 52 5.7 42.3 0 0
22:30 1026 30.3 855 25.25 15.8 60.4 51 5.7 42.2 0 0
22:31 1026 30.3 855 25.25 15.9 60.5 52 6 42.8 0 0
22:32 1026 30.3 855 25.25 15.8 60.5 51 5.9 42.5 0 0
22:33 1026 30.3 855 25.25 15.9 60.6 51 5.7 42.3 0 0
22:34 1026 30.3 855 25.25 16.1 61 50 5.7 42.3 0 0
22:35 1026 30.3 855 25.25 16.2 61.1 50 5.8 42.5 0 0
22:36 1026 30.3 855 25.25 16.3 61.3 49 5.6 42.1 0 0
22:37 1026 30.3 855 25.25 16.5 61.7 48 5.5 41.9 0 0
22:38 1026 30.3 855 25.25 16.7 62.1 47 5.6 42 0 0
22:39 1026 30.3 855 25.25 16.8 62.2 47 5.5 41.9 0 0
22:40 1026 30.3 855 25.25 17 62.5 46 5.5 41.9 0 0
22:41 1026 30.3 855 25.25 17.1 62.8 45 5.3 41.6 0 0
22:42 1026 30.3 855 25.25 17.2 62.9 46 5.7 42.2 0 0
22:43 1026 30.3 855 25.25 17.2 63 46 5.6 42.1 0 0
22:44 1026 30.3 855 25.25 17.2 63 46 5.7 42.3 0 0
22:45 1026 30.3 855 25.25 17.2 62.9 47 5.9 42.6 0 0
22:46 1026 30.3 855 25.25 17 62.6 48 6 42.7 0 0
22:47 1026 30.3 855 25.25 16.7 62.1 50 6.2 43.2 0 0
22:48 1026 30.3 855 25.25 16.4 61.4 50 6.1 43 0 0
22:49 1026 30.3 855 25.25 16.2 61.1 51 6.2 43.1 0 0
22:50 1026 30.3 855 25.25 16 60.8 52 6.3 43.4 0 0
22:51 1026 30.3 855 25.25 15.6 60.1 54 6.4 43.6 0 0
22:52 1026 30.3 855 25.25 15.2 59.4 55 6.4 43.6 0 0
22:53 1026 30.3 855 25.25 14.9 58.8 56 6.4 43.5 0 0
22:54 1026 30.3 855 25.25 14.7 58.4 57 6.3 43.4 0 0
22:55 1026 30.3 855 25.25 14.6 58.2 57 6.3 43.4 0 0
22:56 1026 30.3 855 25.25 14.6 58.2 57 6.2 43.1 0 0
22:57 1026 30.3 855 25.25 14.7 58.4 57 6.4 43.4 0 0
22:58 1026 30.3 855 25.25 14.6 58.2 58 6.4 43.5 0 0
22:59 1026 30.3 855 25.25 14.5 58 58 6.4 43.5 0 0
23:00 1026 30.3 855 25.25 14.4 57.9 58 6.4 43.5 0 0
23:01 1026 30.3 855 25.25 14.3 57.7 58 6.3 43.3 0 0
23:02 1026 30.3 855 25.25 14.3 57.7 59 6.3 43.4 0 0
23:03 1026 30.3 855 25.25 14.3 57.7 59 6.4 43.6 0 0
23:04 1026 30.3 855 25.25 14.1 57.4 60 6.6 43.8 0 0
23:05 1026 30.3 855 25.25 13.8 56.9 61 6.6 43.9 0 0
23:06 1026 30.3 855 25.25 13.6 56.5 62 6.5 43.7 0 0
23:07 1026 30.3 855 25.25 13.5 56.3 62 6.4 43.6 0 0
23:08 1026 30.3 855 25.25 13.5 56.3 62 6.4 43.4 0 0
23:09 1026 30.3 855 25.25 13.5 56.3 62 6.5 43.6 0 0
23:10 1026 30.3 855 25.25 13.4 56 63 6.4 43.6 0 0
23:11 1026 30.3 855 25.25 13.4 56 61 6.1 43 0 0
23:12 1026 30.3 855 25.25 13.5 56.4 60 6.1 43 0 0
23:13 1026 30.3 855 25.25 13.7 56.6 59 5.9 42.7 0 0
23:14 1026 30.3 855 25.25 13.9 57.1 58 6 42.7 0 0
23:15 1026 30.3 855 25.25 14 57.2 59 6.1 43 0 0
23:16 1026 30.3 855 25.25 14 57.1 59 6.2 43.2 0 0
23:17 1026 30.3 855 25.25 13.8 56.8 60 6.2 43.2 0 0
23:18 1026 30.3 855 25.25 13.6 56.5 61 6.2 43.2 0 0
23:19 1026 30.3 855 25.25 13.5 56.3 61 6.2 43.1 0 0
23:20 1026 30.3 855 25.25 13.3 56 61 6.1 43 0 0
23:21 1026 30.3 855 25.25 13.2 55.7 62 6.1 42.9 0 0
23:22 1026 30.3 855 25.25 13 55.4 63 6.1 42.9 0 0
23:23 1026 30.3 855 25.25 12.9 55.2 63 6.1 42.9 0 0
23:24 1026 30.3 855 25.25 12.9 55.2 63 6.1 42.9 0 0
23:25 1026 30.3 855 25.25 13 55.4 62 6 42.9 0 0
23:26 1026 30.3 855 25.25 13.1 55.6 62 6.2 43.1 0 0
23:27 1026 30.3 855 25.25 13.2 55.7 63 6.3 43.3 0 0
23:28 1026 30.3 855 25.25 13.1 55.6 62 6.1 43 0 0
23:29 1026 30.3 855 25.25 13.2 55.7 61 5.9 42.6 0 0
23:30 1026 30.3 855 25.25 13.4 56.1 61 6.1 42.9 0 0
23:31 1026 30.3 855 25.25 13.4 56 61 6 42.8 0 0
23:32 1026 30.3 855 25.25 13.3 55.9 61 6 42.8 0 0
23:33 1026 30.3 855 25.25 13.1 55.6 61 5.9 42.5 0 0
23:34 1026 30.3 855 25.25 13.2 55.8 59 5.5 41.9 0 0
23:35 1026 30.3 855 25.25 13.5 56.3 58 5.5 41.9 0 0
23:36 1026 30.3 855 25.25 13.7 56.7 58 5.7 42.2 0 0
23:37 1026 30.3 855 25.25 13.7 56.6 58 5.7 42.3 0 0
23:38 1026 30.3 855 25.25 13.6 56.5 58 5.6 42.1 0 0
23:39 1026 30.3 855 25.25 13.7 56.6 58 5.6 42.2 0 0
23:40 1026 30.3 855 25.25 13.8 56.8 58 5.7 42.3 0 0
23:41 1026 30.3 855 25.25 13.8 56.8 58 5.8 42.4 0 0
23:42 1026 30.3 855 25.25 13.8 56.9 58 5.8 42.5 0 0
23:43 1026 30.3 855 25.25 13.8 56.8 58 5.7 42.3 0 0
23:44 1026 30.3 855 25.25 13.7 56.7 58 5.6 42.1 0 0
23:45 1026 30.3 855 25.25 13.8 56.9 57 5.5 41.9 0 0
23:46 1026 30.3 855 25.25 14.1 57.3 56 5.6 42.1 0 0
23:47 1026 30.3 855 25.25 14.1 57.4 57 5.7 42.2 0 0
23:48 1026 30.3 855 25.25 14.1 57.5 57 5.7 42.3 0 0
23:49 1026 30.3 855 25.25 14.1 57.5 56 5.7 42.2 0 0
23:50 1026 30.3 855 25.25 14.1 57.5 57 5.8 42.5 0 0
23:51 1026 30.3 855 25.25 14.1 57.3 57 5.7 42.3 0 0
23:52 1026 30.3 855 25.25 14 57.2 58 5.9 42.6 0 0
23:53 1026 30.3 855 25.25 13.8 56.9 58 5.9 42.6 0 0
23:54 1026 30.3 855 25.25 13.6 56.6 59 5.8 42.5 0 0
23:55 1026 30.3 855 25.25 13.5 56.4 59 5.8 42.5 0 0
23:56 1026 30.3 855 25.25 13.5 56.2 60 5.8 42.5 0 0
23:57 1026 30.3 855 25.25 13.4 56 60 5.8 42.4 0 0
23:58 1026 30.3 855 25.25 13.3 56 60 5.7 42.3 0 0
23:59 1026 30.3 855 25.25 13.3 55.9 60 5.8 42.5 0 0
24:00 1026 30.3 855 25.25 13.2 55.8 61 5.8 42.5 0 0